<?xml version="1.0" encoding="UTF-8" standalone="no" ?>
<gpx xmlns="http://www.topografix.com/GPX/1/1" xmlns:xsi="http://www.w3.org/2001/XMLSchema-instance" xsi:schemaLocation="http://www.topografix.com/GPX/1/1 http://www.topografix.com/GPX/1/1/gpx.xsd" version="1.1" creator="VisuGPX - https://www.visugpx.com">
  <metadata>
    <name>038SG83-8208786</name>
    <desc><![CDATA[
03]]></desc>
  </metadata>
  <trk>
    <name><![CDATA[038SG83-8208786]]></name>
    <trkseg>
      <trkpt lat="46.69864" lon="-1.93433">
        <ele>4</ele>
        <time>2018-03-21T22:12:30Z</time>
      </trkpt>
      <trkpt lat="46.69877" lon="-1.9343">
        <ele>4</ele>
        <time>2018-03-21T22:13:30Z</time>
      </trkpt>
      <trkpt lat="46.69895" lon="-1.93414">
        <ele>4</ele>
        <time>2018-03-21T22:14:30Z</time>
      </trkpt>
      <trkpt lat="46.69919" lon="-1.93404">
        <ele>3</ele>
        <time>2018-03-21T22:15:30Z</time>
      </trkpt>
      <trkpt lat="46.69956" lon="-1.93401">
        <ele>3</ele>
        <time>2018-03-21T22:16:30Z</time>
      </trkpt>
      <trkpt lat="46.69966" lon="-1.93392">
        <ele>3</ele>
        <time>2018-03-21T22:17:30Z</time>
      </trkpt>
      <trkpt lat="46.69966" lon="-1.93392">
        <ele>3</ele>
        <time>2018-03-21T22:18:30Z</time>
      </trkpt>
      <trkpt lat="46.69974" lon="-1.93384">
        <ele>3</ele>
        <time>2018-03-21T22:19:30Z</time>
      </trkpt>
      <trkpt lat="46.69984" lon="-1.9338">
        <ele>3</ele>
        <time>2018-03-21T22:20:30Z</time>
      </trkpt>
      <trkpt lat="46.70018" lon="-1.93395">
        <ele>3</ele>
        <time>2018-03-21T22:21:30Z</time>
      </trkpt>
      <trkpt lat="46.70034" lon="-1.93411">
        <ele>3</ele>
        <time>2018-03-21T22:22:30Z</time>
      </trkpt>
      <trkpt lat="46.70045" lon="-1.93416">
        <ele>2</ele>
        <time>2018-03-21T22:23:30Z</time>
      </trkpt>
      <trkpt lat="46.70048" lon="-1.93421">
        <ele>2</ele>
        <time>2018-03-21T22:24:30Z</time>
      </trkpt>
      <trkpt lat="46.70055" lon="-1.93423">
        <ele>2</ele>
        <time>2018-03-21T22:25:30Z</time>
      </trkpt>
      <trkpt lat="46.70062" lon="-1.93421">
        <ele>2</ele>
        <time>2018-03-21T22:26:30Z</time>
      </trkpt>
      <trkpt lat="46.70066" lon="-1.93416">
        <ele>2</ele>
        <time>2018-03-21T22:27:30Z</time>
      </trkpt>
      <trkpt lat="46.7009" lon="-1.93413">
        <ele>2</ele>
        <time>2018-03-21T22:28:30Z</time>
      </trkpt>
      <trkpt lat="46.70097" lon="-1.93442">
        <ele>2</ele>
        <time>2018-03-21T22:29:30Z</time>
      </trkpt>
      <trkpt lat="46.70101" lon="-1.93447">
        <ele>2</ele>
        <time>2018-03-21T22:30:30Z</time>
      </trkpt>
      <trkpt lat="46.70108" lon="-1.93448">
        <ele>2</ele>
        <time>2018-03-21T22:31:30Z</time>
      </trkpt>
      <trkpt lat="46.70123" lon="-1.93442">
        <ele>2</ele>
        <time>2018-03-21T22:32:30Z</time>
      </trkpt>
      <trkpt lat="46.70123" lon="-1.93442">
        <ele>2</ele>
        <time>2018-03-21T22:33:30Z</time>
      </trkpt>
      <trkpt lat="46.70151" lon="-1.9343">
        <ele>1</ele>
        <time>2018-03-21T22:34:30Z</time>
      </trkpt>
      <trkpt lat="46.70152" lon="-1.93426">
        <ele>1</ele>
        <time>2018-03-21T22:35:30Z</time>
      </trkpt>
      <trkpt lat="46.70151" lon="-1.93405">
        <ele>1</ele>
        <time>2018-03-21T22:36:30Z</time>
      </trkpt>
      <trkpt lat="46.70153" lon="-1.93399">
        <ele>1</ele>
        <time>2018-03-21T22:37:30Z</time>
      </trkpt>
      <trkpt lat="46.70163" lon="-1.93385">
        <ele>1</ele>
        <time>2018-03-21T22:38:30Z</time>
      </trkpt>
      <trkpt lat="46.7015" lon="-1.93394">
        <ele>1</ele>
        <time>2018-03-21T22:39:30Z</time>
      </trkpt>
      <trkpt lat="46.70145" lon="-1.93407">
        <ele>1</ele>
        <time>2018-03-21T22:40:30Z</time>
      </trkpt>
      <trkpt lat="46.70145" lon="-1.93429">
        <ele>1</ele>
        <time>2018-03-21T22:41:30Z</time>
      </trkpt>
      <trkpt lat="46.70151" lon="-1.93476">
        <ele>1</ele>
        <time>2018-03-21T22:42:30Z</time>
      </trkpt>
      <trkpt lat="46.7015" lon="-1.93486">
        <ele>1</ele>
        <time>2018-03-21T22:43:30Z</time>
      </trkpt>
      <trkpt lat="46.70196" lon="-1.93684">
        <ele>2</ele>
        <time>2018-03-21T22:44:30Z</time>
      </trkpt>
      <trkpt lat="46.70228" lon="-1.93802">
        <ele>4</ele>
        <time>2018-03-21T22:45:30Z</time>
      </trkpt>
      <trkpt lat="46.70248" lon="-1.93864">
        <ele>3</ele>
        <time>2018-03-21T22:46:30Z</time>
      </trkpt>
      <trkpt lat="46.70252" lon="-1.93863">
        <ele>3</ele>
        <time>2018-03-21T22:47:30Z</time>
      </trkpt>
      <trkpt lat="46.70258" lon="-1.93867">
        <ele>3</ele>
        <time>2018-03-21T22:48:30Z</time>
      </trkpt>
      <trkpt lat="46.70274" lon="-1.93884">
        <ele>3</ele>
        <time>2018-03-21T22:49:30Z</time>
      </trkpt>
      <trkpt lat="46.70278" lon="-1.93895">
        <ele>3</ele>
        <time>2018-03-21T22:50:30Z</time>
      </trkpt>
      <trkpt lat="46.70288" lon="-1.9393">
        <ele>3</ele>
        <time>2018-03-21T22:51:30Z</time>
      </trkpt>
      <trkpt lat="46.70329" lon="-1.93995">
        <ele>3</ele>
        <time>2018-03-21T22:52:30Z</time>
      </trkpt>
      <trkpt lat="46.70376" lon="-1.94054">
        <ele>4</ele>
        <time>2018-03-21T22:53:30Z</time>
      </trkpt>
      <trkpt lat="46.70387" lon="-1.94076">
        <ele>4</ele>
        <time>2018-03-21T22:54:30Z</time>
      </trkpt>
      <trkpt lat="46.70408" lon="-1.94095">
        <ele>4</ele>
        <time>2018-03-21T22:55:30Z</time>
      </trkpt>
      <trkpt lat="46.70444" lon="-1.94121">
        <ele>4</ele>
        <time>2018-03-21T22:56:30Z</time>
      </trkpt>
      <trkpt lat="46.70502" lon="-1.94147">
        <ele>4</ele>
        <time>2018-03-21T22:57:30Z</time>
      </trkpt>
      <trkpt lat="46.70541" lon="-1.94169">
        <ele>4</ele>
        <time>2018-03-21T22:58:30Z</time>
      </trkpt>
      <trkpt lat="46.70564" lon="-1.9418">
        <ele>5</ele>
        <time>2018-03-21T22:59:30Z</time>
      </trkpt>
      <trkpt lat="46.70611" lon="-1.94188">
        <ele>5</ele>
        <time>2018-03-21T23:00:30Z</time>
      </trkpt>
      <trkpt lat="46.70685" lon="-1.94193">
        <ele>6</ele>
        <time>2018-03-21T23:01:30Z</time>
      </trkpt>
      <trkpt lat="46.70695" lon="-1.94195">
        <ele>6</ele>
        <time>2018-03-21T23:02:30Z</time>
      </trkpt>
      <trkpt lat="46.70707" lon="-1.94202">
        <ele>6</ele>
        <time>2018-03-21T23:03:30Z</time>
      </trkpt>
      <trkpt lat="46.70716" lon="-1.94204">
        <ele>6</ele>
        <time>2018-03-21T23:04:30Z</time>
      </trkpt>
      <trkpt lat="46.70793" lon="-1.94203">
        <ele>5</ele>
        <time>2018-03-21T23:05:30Z</time>
      </trkpt>
      <trkpt lat="46.70851" lon="-1.94195">
        <ele>4</ele>
        <time>2018-03-21T23:06:30Z</time>
      </trkpt>
      <trkpt lat="46.70949" lon="-1.94171">
        <ele>3</ele>
        <time>2018-03-21T23:07:30Z</time>
      </trkpt>
      <trkpt lat="46.71302" lon="-1.94088">
        <ele>4</ele>
        <time>2018-03-21T23:08:30Z</time>
      </trkpt>
      <trkpt lat="46.71342" lon="-1.94082">
        <ele>4</ele>
        <time>2018-03-21T23:09:30Z</time>
      </trkpt>
      <trkpt lat="46.71366" lon="-1.94081">
        <ele>4</ele>
        <time>2018-03-21T23:10:30Z</time>
      </trkpt>
      <trkpt lat="46.71446" lon="-1.94064">
        <ele>3</ele>
        <time>2018-03-21T23:11:30Z</time>
      </trkpt>
      <trkpt lat="46.71759" lon="-1.93992">
        <ele>1</ele>
        <time>2018-03-21T23:12:30Z</time>
      </trkpt>
      <trkpt lat="46.71793" lon="-1.93979">
        <ele>1</ele>
        <time>2018-03-21T23:13:30Z</time>
      </trkpt>
      <trkpt lat="46.71798" lon="-1.9397">
        <ele>1</ele>
        <time>2018-03-21T23:14:30Z</time>
      </trkpt>
      <trkpt lat="46.71807" lon="-1.93965">
        <ele>1</ele>
        <time>2018-03-21T23:15:30Z</time>
      </trkpt>
      <trkpt lat="46.71815" lon="-1.93965">
        <ele>1</ele>
        <time>2018-03-21T23:16:30Z</time>
      </trkpt>
      <trkpt lat="46.71826" lon="-1.93971">
        <ele>1</ele>
        <time>2018-03-21T23:17:30Z</time>
      </trkpt>
      <trkpt lat="46.71909" lon="-1.93948">
        <ele>1</ele>
        <time>2018-03-21T23:18:30Z</time>
      </trkpt>
      <trkpt lat="46.71931" lon="-1.93946">
        <ele>1</ele>
        <time>2018-03-21T23:19:30Z</time>
      </trkpt>
      <trkpt lat="46.71991" lon="-1.93928">
        <ele>1</ele>
        <time>2018-03-21T23:20:30Z</time>
      </trkpt>
      <trkpt lat="46.72043" lon="-1.93923">
        <ele>2</ele>
        <time>2018-03-21T23:21:30Z</time>
      </trkpt>
      <trkpt lat="46.72078" lon="-1.93925">
        <ele>2</ele>
        <time>2018-03-21T23:22:30Z</time>
      </trkpt>
      <trkpt lat="46.72134" lon="-1.93938">
        <ele>2</ele>
        <time>2018-03-21T23:23:30Z</time>
      </trkpt>
      <trkpt lat="46.72167" lon="-1.93951">
        <ele>3</ele>
        <time>2018-03-21T23:24:30Z</time>
      </trkpt>
      <trkpt lat="46.72224" lon="-1.93984">
        <ele>1</ele>
        <time>2018-03-21T23:25:30Z</time>
      </trkpt>
      <trkpt lat="46.72283" lon="-1.94012">
        <ele>1</ele>
        <time>2018-03-21T23:26:30Z</time>
      </trkpt>
      <trkpt lat="46.72302" lon="-1.94025">
        <ele>2</ele>
        <time>2018-03-21T23:27:30Z</time>
      </trkpt>
      <trkpt lat="46.72334" lon="-1.94067">
        <ele>3</ele>
        <time>2018-03-21T23:28:30Z</time>
      </trkpt>
      <trkpt lat="46.72382" lon="-1.94149">
        <ele>3</ele>
        <time>2018-03-21T23:29:30Z</time>
      </trkpt>
      <trkpt lat="46.72417" lon="-1.94215">
        <ele>3</ele>
        <time>2018-03-21T23:30:30Z</time>
      </trkpt>
      <trkpt lat="46.72463" lon="-1.94292">
        <ele>4</ele>
        <time>2018-03-21T23:31:30Z</time>
      </trkpt>
      <trkpt lat="46.72472" lon="-1.94301">
        <ele>4</ele>
        <time>2018-03-21T23:32:30Z</time>
      </trkpt>
      <trkpt lat="46.72485" lon="-1.94306">
        <ele>4</ele>
        <time>2018-03-21T23:33:30Z</time>
      </trkpt>
      <trkpt lat="46.72496" lon="-1.94356">
        <ele>4</ele>
        <time>2018-03-21T23:34:30Z</time>
      </trkpt>
      <trkpt lat="46.7253" lon="-1.9441">
        <ele>4</ele>
        <time>2018-03-21T23:35:30Z</time>
      </trkpt>
      <trkpt lat="46.72546" lon="-1.94447">
        <ele>4</ele>
        <time>2018-03-21T23:36:30Z</time>
      </trkpt>
      <trkpt lat="46.72772" lon="-1.94846">
        <ele>5</ele>
        <time>2018-03-21T23:37:30Z</time>
      </trkpt>
      <trkpt lat="46.72776" lon="-1.94853">
        <ele>5</ele>
        <time>2018-03-21T23:38:30Z</time>
      </trkpt>
      <trkpt lat="46.72786" lon="-1.94862">
        <ele>5</ele>
        <time>2018-03-21T23:39:30Z</time>
      </trkpt>
      <trkpt lat="46.72792" lon="-1.94862">
        <ele>5</ele>
        <time>2018-03-21T23:40:30Z</time>
      </trkpt>
      <trkpt lat="46.728" lon="-1.94858">
        <ele>5</ele>
        <time>2018-03-21T23:41:30Z</time>
      </trkpt>
      <trkpt lat="46.72812" lon="-1.94864">
        <ele>4</ele>
        <time>2018-03-21T23:42:30Z</time>
      </trkpt>
      <trkpt lat="46.72819" lon="-1.94858">
        <ele>4</ele>
        <time>2018-03-21T23:43:30Z</time>
      </trkpt>
      <trkpt lat="46.72823" lon="-1.94862">
        <ele>4</ele>
        <time>2018-03-21T23:44:30Z</time>
      </trkpt>
      <trkpt lat="46.72825" lon="-1.94874">
        <ele>4</ele>
        <time>2018-03-21T23:45:30Z</time>
      </trkpt>
      <trkpt lat="46.72827" lon="-1.94901">
        <ele>4</ele>
        <time>2018-03-21T23:46:30Z</time>
      </trkpt>
      <trkpt lat="46.72825" lon="-1.9492">
        <ele>4</ele>
        <time>2018-03-21T23:47:30Z</time>
      </trkpt>
      <trkpt lat="46.72847" lon="-1.94927">
        <ele>4</ele>
        <time>2018-03-21T23:48:30Z</time>
      </trkpt>
      <trkpt lat="46.72885" lon="-1.94924">
        <ele>4</ele>
        <time>2018-03-21T23:49:30Z</time>
      </trkpt>
      <trkpt lat="46.72912" lon="-1.94929">
        <ele>4</ele>
        <time>2018-03-21T23:50:30Z</time>
      </trkpt>
      <trkpt lat="46.73088" lon="-1.94991">
        <ele>8</ele>
        <time>2018-03-21T23:51:30Z</time>
      </trkpt>
      <trkpt lat="46.73088" lon="-1.94991">
        <ele>8</ele>
        <time>2018-03-21T23:52:30Z</time>
      </trkpt>
      <trkpt lat="46.73128" lon="-1.95005">
        <ele>7</ele>
        <time>2018-03-21T23:53:30Z</time>
      </trkpt>
      <trkpt lat="46.73429" lon="-1.95059">
        <ele>5</ele>
        <time>2018-03-21T23:54:30Z</time>
      </trkpt>
      <trkpt lat="46.73481" lon="-1.95061">
        <ele>4</ele>
        <time>2018-03-21T23:55:30Z</time>
      </trkpt>
      <trkpt lat="46.73494" lon="-1.95055">
        <ele>4</ele>
        <time>2018-03-21T23:56:30Z</time>
      </trkpt>
      <trkpt lat="46.73497" lon="-1.95055">
        <ele>4</ele>
        <time>2018-03-21T23:57:30Z</time>
      </trkpt>
      <trkpt lat="46.73499" lon="-1.95056">
        <ele>4</ele>
        <time>2018-03-21T23:58:30Z</time>
      </trkpt>
      <trkpt lat="46.7351" lon="-1.95075">
        <ele>4</ele>
        <time>2018-03-21T23:59:30Z</time>
      </trkpt>
      <trkpt lat="46.73549" lon="-1.95091">
        <ele>3</ele>
        <time>2018-03-22T00:00:30Z</time>
      </trkpt>
      <trkpt lat="46.73778" lon="-1.95229">
        <ele>4</ele>
        <time>2018-03-22T00:01:30Z</time>
      </trkpt>
      <trkpt lat="46.73872" lon="-1.95264">
        <ele>3</ele>
        <time>2018-03-22T00:02:30Z</time>
      </trkpt>
      <trkpt lat="46.73989" lon="-1.95314">
        <ele>5</ele>
        <time>2018-03-22T00:03:30Z</time>
      </trkpt>
      <trkpt lat="46.74103" lon="-1.95397">
        <ele>4</ele>
        <time>2018-03-22T00:04:30Z</time>
      </trkpt>
      <trkpt lat="46.74184" lon="-1.95449">
        <ele>2</ele>
        <time>2018-03-22T00:05:30Z</time>
      </trkpt>
      <trkpt lat="46.74285" lon="-1.95482">
        <ele>1</ele>
        <time>2018-03-22T00:06:30Z</time>
      </trkpt>
      <trkpt lat="46.74397" lon="-1.95503">
        <ele>2</ele>
        <time>2018-03-22T00:07:30Z</time>
      </trkpt>
      <trkpt lat="46.74449" lon="-1.95517">
        <ele>2</ele>
        <time>2018-03-22T00:08:30Z</time>
      </trkpt>
      <trkpt lat="46.74458" lon="-1.95514">
        <ele>2</ele>
        <time>2018-03-22T00:09:30Z</time>
      </trkpt>
      <trkpt lat="46.74465" lon="-1.9552">
        <ele>1</ele>
        <time>2018-03-22T00:10:30Z</time>
      </trkpt>
      <trkpt lat="46.74467" lon="-1.95525">
        <ele>1</ele>
        <time>2018-03-22T00:11:30Z</time>
      </trkpt>
      <trkpt lat="46.74469" lon="-1.95535">
        <ele>1</ele>
        <time>2018-03-22T00:12:30Z</time>
      </trkpt>
      <trkpt lat="46.74468" lon="-1.9554">
        <ele>1</ele>
        <time>2018-03-22T00:13:30Z</time>
      </trkpt>
      <trkpt lat="46.74472" lon="-1.95541">
        <ele>1</ele>
        <time>2018-03-22T00:14:30Z</time>
      </trkpt>
      <trkpt lat="46.74638" lon="-1.95578">
        <ele>2</ele>
        <time>2018-03-22T00:15:30Z</time>
      </trkpt>
      <trkpt lat="46.74685" lon="-1.95579">
        <ele>2</ele>
        <time>2018-03-22T00:16:30Z</time>
      </trkpt>
      <trkpt lat="46.7477" lon="-1.95572">
        <ele>1</ele>
        <time>2018-03-22T00:17:30Z</time>
      </trkpt>
      <trkpt lat="46.74806" lon="-1.95576">
        <ele>2</ele>
        <time>2018-03-22T00:18:30Z</time>
      </trkpt>
      <trkpt lat="46.74835" lon="-1.95585">
        <ele>2</ele>
        <time>2018-03-22T00:19:30Z</time>
      </trkpt>
      <trkpt lat="46.75006" lon="-1.95668">
        <ele>1</ele>
        <time>2018-03-22T00:20:30Z</time>
      </trkpt>
      <trkpt lat="46.7506" lon="-1.95692">
        <ele>1</ele>
        <time>2018-03-22T00:21:30Z</time>
      </trkpt>
      <trkpt lat="46.75087" lon="-1.95702">
        <ele>1</ele>
        <time>2018-03-22T00:22:30Z</time>
      </trkpt>
      <trkpt lat="46.75116" lon="-1.95707">
        <ele>1</ele>
        <time>2018-03-22T00:23:30Z</time>
      </trkpt>
      <trkpt lat="46.75225" lon="-1.95712">
        <ele>1</ele>
        <time>2018-03-22T00:24:30Z</time>
      </trkpt>
      <trkpt lat="46.75263" lon="-1.9572">
        <ele>1</ele>
        <time>2018-03-22T00:25:30Z</time>
      </trkpt>
      <trkpt lat="46.75433" lon="-1.95807">
        <ele>2</ele>
        <time>2018-03-22T00:26:30Z</time>
      </trkpt>
      <trkpt lat="46.75532" lon="-1.95861">
        <ele>2</ele>
        <time>2018-03-22T00:27:30Z</time>
      </trkpt>
      <trkpt lat="46.75698" lon="-1.95907">
        <ele>3</ele>
        <time>2018-03-22T00:28:30Z</time>
      </trkpt>
      <trkpt lat="46.75744" lon="-1.95914">
        <ele>2</ele>
        <time>2018-03-22T00:29:30Z</time>
      </trkpt>
      <trkpt lat="46.75989" lon="-1.95928">
        <ele>5</ele>
        <time>2018-03-22T00:30:30Z</time>
      </trkpt>
      <trkpt lat="46.7603" lon="-1.95935">
        <ele>5</ele>
        <time>2018-03-22T00:31:30Z</time>
      </trkpt>
      <trkpt lat="46.76105" lon="-1.95961">
        <ele>4</ele>
        <time>2018-03-22T00:32:30Z</time>
      </trkpt>
      <trkpt lat="46.76148" lon="-1.95979">
        <ele>3</ele>
        <time>2018-03-22T00:33:30Z</time>
      </trkpt>
      <trkpt lat="46.76219" lon="-1.96014">
        <ele>4</ele>
        <time>2018-03-22T00:34:30Z</time>
      </trkpt>
      <trkpt lat="46.76318" lon="-1.96079">
        <ele>3</ele>
        <time>2018-03-22T00:35:30Z</time>
      </trkpt>
      <trkpt lat="46.76378" lon="-1.96105">
        <ele>2</ele>
        <time>2018-03-22T00:36:30Z</time>
      </trkpt>
      <trkpt lat="46.76682" lon="-1.96215">
        <ele>3</ele>
        <time>2018-03-22T00:37:30Z</time>
      </trkpt>
      <trkpt lat="46.76809" lon="-1.96258">
        <ele>3</ele>
        <time>2018-03-22T00:38:30Z</time>
      </trkpt>
      <trkpt lat="46.76892" lon="-1.96275">
        <ele>4</ele>
        <time>2018-03-22T00:39:30Z</time>
      </trkpt>
      <trkpt lat="46.77099" lon="-1.96301">
        <ele>6</ele>
        <time>2018-03-22T00:40:30Z</time>
      </trkpt>
      <trkpt lat="46.77129" lon="-1.96306">
        <ele>6</ele>
        <time>2018-03-22T00:41:30Z</time>
      </trkpt>
      <trkpt lat="46.7714" lon="-1.96312">
        <ele>6</ele>
        <time>2018-03-22T00:42:30Z</time>
      </trkpt>
      <trkpt lat="46.77153" lon="-1.96315">
        <ele>6</ele>
        <time>2018-03-22T00:43:30Z</time>
      </trkpt>
      <trkpt lat="46.77157" lon="-1.96302">
        <ele>6</ele>
        <time>2018-03-22T00:44:30Z</time>
      </trkpt>
      <trkpt lat="46.77166" lon="-1.96297">
        <ele>6</ele>
        <time>2018-03-22T00:45:30Z</time>
      </trkpt>
      <trkpt lat="46.77175" lon="-1.96303">
        <ele>6</ele>
        <time>2018-03-22T00:46:30Z</time>
      </trkpt>
      <trkpt lat="46.77178" lon="-1.96319">
        <ele>6</ele>
        <time>2018-03-22T00:47:30Z</time>
      </trkpt>
      <trkpt lat="46.77176" lon="-1.96323">
        <ele>6</ele>
        <time>2018-03-22T00:48:30Z</time>
      </trkpt>
      <trkpt lat="46.77192" lon="-1.96329">
        <ele>6</ele>
        <time>2018-03-22T00:49:30Z</time>
      </trkpt>
      <trkpt lat="46.77223" lon="-1.96351">
        <ele>5</ele>
        <time>2018-03-22T00:50:30Z</time>
      </trkpt>
      <trkpt lat="46.77305" lon="-1.96427">
        <ele>5</ele>
        <time>2018-03-22T00:51:30Z</time>
      </trkpt>
      <trkpt lat="46.77479" lon="-1.966">
        <ele>6</ele>
        <time>2018-03-22T00:52:30Z</time>
      </trkpt>
      <trkpt lat="46.7766" lon="-1.96774">
        <ele>3</ele>
        <time>2018-03-22T00:53:30Z</time>
      </trkpt>
      <trkpt lat="46.77713" lon="-1.96822">
        <ele>3</ele>
        <time>2018-03-22T00:54:30Z</time>
      </trkpt>
      <trkpt lat="46.77751" lon="-1.9685">
        <ele>4</ele>
        <time>2018-03-22T00:55:30Z</time>
      </trkpt>
      <trkpt lat="46.7779" lon="-1.96871">
        <ele>4</ele>
        <time>2018-03-22T00:56:30Z</time>
      </trkpt>
      <trkpt lat="46.77912" lon="-1.9692">
        <ele>3</ele>
        <time>2018-03-22T00:57:30Z</time>
      </trkpt>
      <trkpt lat="46.77947" lon="-1.96937">
        <ele>3</ele>
        <time>2018-03-22T00:58:30Z</time>
      </trkpt>
      <trkpt lat="46.78223" lon="-1.97089">
        <ele>3</ele>
        <time>2018-03-22T00:59:30Z</time>
      </trkpt>
      <trkpt lat="46.78399" lon="-1.97188">
        <ele>5</ele>
        <time>2018-03-22T01:00:30Z</time>
      </trkpt>
      <trkpt lat="46.78429" lon="-1.97203">
        <ele>5</ele>
        <time>2018-03-22T01:01:30Z</time>
      </trkpt>
      <trkpt lat="46.78486" lon="-1.97229">
        <ele>4</ele>
        <time>2018-03-22T01:02:30Z</time>
      </trkpt>
      <trkpt lat="46.7853" lon="-1.97246">
        <ele>5</ele>
        <time>2018-03-22T01:03:30Z</time>
      </trkpt>
      <trkpt lat="46.78861" lon="-1.9737">
        <ele>4</ele>
        <time>2018-03-22T01:04:30Z</time>
      </trkpt>
      <trkpt lat="46.78956" lon="-1.97409">
        <ele>2</ele>
        <time>2018-03-22T01:05:30Z</time>
      </trkpt>
      <trkpt lat="46.78993" lon="-1.97435">
        <ele>2</ele>
        <time>2018-03-22T01:06:30Z</time>
      </trkpt>
      <trkpt lat="46.79024" lon="-1.97468">
        <ele>1</ele>
        <time>2018-03-22T01:07:30Z</time>
      </trkpt>
      <trkpt lat="46.7905" lon="-1.97507">
        <ele>1</ele>
        <time>2018-03-22T01:08:30Z</time>
      </trkpt>
      <trkpt lat="46.79079" lon="-1.97562">
        <ele>1</ele>
        <time>2018-03-22T01:09:30Z</time>
      </trkpt>
      <trkpt lat="46.79126" lon="-1.97642">
        <ele>1.9</ele>
        <time>2018-03-22T01:10:30Z</time>
      </trkpt>
      <trkpt lat="46.79162" lon="-1.97707">
        <ele>2</ele>
        <time>2018-03-22T01:11:30Z</time>
      </trkpt>
      <trkpt lat="46.79208" lon="-1.97803">
        <ele>1</ele>
        <time>2018-03-22T01:12:30Z</time>
      </trkpt>
      <trkpt lat="46.79249" lon="-1.97883">
        <ele>1</ele>
        <time>2018-03-22T01:13:30Z</time>
      </trkpt>
      <trkpt lat="46.79275" lon="-1.97915">
        <ele>1</ele>
        <time>2018-03-22T01:14:30Z</time>
      </trkpt>
      <trkpt lat="46.79308" lon="-1.97928">
        <ele>1</ele>
        <time>2018-03-22T01:15:30Z</time>
      </trkpt>
      <trkpt lat="46.79341" lon="-1.97926">
        <ele>1</ele>
        <time>2018-03-22T01:16:30Z</time>
      </trkpt>
      <trkpt lat="46.79506" lon="-1.97906">
        <ele>1.9</ele>
        <time>2018-03-22T01:17:30Z</time>
      </trkpt>
      <trkpt lat="46.7955" lon="-1.97899">
        <ele>1.9</ele>
        <time>2018-03-22T01:18:30Z</time>
      </trkpt>
      <trkpt lat="46.79596" lon="-1.97889">
        <ele>2</ele>
        <time>2018-03-22T01:19:30Z</time>
      </trkpt>
      <trkpt lat="46.79716" lon="-1.97838">
        <ele>1</ele>
        <time>2018-03-22T01:20:30Z</time>
      </trkpt>
      <trkpt lat="46.79763" lon="-1.97823">
        <ele>1</ele>
        <time>2018-03-22T01:21:30Z</time>
      </trkpt>
      <trkpt lat="46.798" lon="-1.9782">
        <ele>2</ele>
        <time>2018-03-22T01:22:30Z</time>
      </trkpt>
      <trkpt lat="46.79838" lon="-1.97831">
        <ele>2</ele>
        <time>2018-03-22T01:23:30Z</time>
      </trkpt>
      <trkpt lat="46.79877" lon="-1.97852">
        <ele>2</ele>
        <time>2018-03-22T01:24:30Z</time>
      </trkpt>
      <trkpt lat="46.79917" lon="-1.9788">
        <ele>2</ele>
        <time>2018-03-22T01:25:30Z</time>
      </trkpt>
      <trkpt lat="46.79949" lon="-1.97912">
        <ele>2</ele>
        <time>2018-03-22T01:26:30Z</time>
      </trkpt>
      <trkpt lat="46.8001" lon="-1.97983">
        <ele>2.1</ele>
        <time>2018-03-22T01:27:30Z</time>
      </trkpt>
      <trkpt lat="46.80042" lon="-1.98009">
        <ele>2.3</ele>
        <time>2018-03-22T01:28:30Z</time>
      </trkpt>
      <trkpt lat="46.80112" lon="-1.98041">
        <ele>2</ele>
        <time>2018-03-22T01:29:30Z</time>
      </trkpt>
      <trkpt lat="46.80223" lon="-1.98085">
        <ele>2</ele>
        <time>2018-03-22T01:30:30Z</time>
      </trkpt>
      <trkpt lat="46.80254" lon="-1.98102">
        <ele>2</ele>
        <time>2018-03-22T01:31:30Z</time>
      </trkpt>
      <trkpt lat="46.80281" lon="-1.98126">
        <ele>2</ele>
        <time>2018-03-22T01:32:30Z</time>
      </trkpt>
      <trkpt lat="46.80372" lon="-1.98228">
        <ele>2</ele>
        <time>2018-03-22T01:33:30Z</time>
      </trkpt>
      <trkpt lat="46.80434" lon="-1.98303">
        <ele>1</ele>
        <time>2018-03-22T01:34:30Z</time>
      </trkpt>
      <trkpt lat="46.80459" lon="-1.98323">
        <ele>1</ele>
        <time>2018-03-22T01:35:30Z</time>
      </trkpt>
      <trkpt lat="46.80468" lon="-1.98317">
        <ele>1</ele>
        <time>2018-03-22T01:36:30Z</time>
      </trkpt>
      <trkpt lat="46.80478" lon="-1.98316">
        <ele>1</ele>
        <time>2018-03-22T01:37:30Z</time>
      </trkpt>
      <trkpt lat="46.80487" lon="-1.98326">
        <ele>1</ele>
        <time>2018-03-22T01:38:30Z</time>
      </trkpt>
      <trkpt lat="46.8049" lon="-1.98348">
        <ele>1</ele>
        <time>2018-03-22T01:39:30Z</time>
      </trkpt>
      <trkpt lat="46.80489" lon="-1.98357">
        <ele>1</ele>
        <time>2018-03-22T01:40:30Z</time>
      </trkpt>
      <trkpt lat="46.80512" lon="-1.98392">
        <ele>2.5</ele>
        <time>2018-03-22T01:41:30Z</time>
      </trkpt>
      <trkpt lat="46.80524" lon="-1.98402">
        <ele>2.1</ele>
        <time>2018-03-22T01:42:30Z</time>
      </trkpt>
      <trkpt lat="46.808" lon="-1.98697">
        <ele>1.9</ele>
        <time>2018-03-22T01:43:30Z</time>
      </trkpt>
      <trkpt lat="46.80837" lon="-1.98733">
        <ele>2</ele>
        <time>2018-03-22T01:44:30Z</time>
      </trkpt>
      <trkpt lat="46.81054" lon="-1.9891">
        <ele>1</ele>
        <time>2018-03-22T01:45:30Z</time>
      </trkpt>
      <trkpt lat="46.81082" lon="-1.98919">
        <ele>1</ele>
        <time>2018-03-22T01:46:30Z</time>
      </trkpt>
      <trkpt lat="46.81101" lon="-1.98919">
        <ele>1</ele>
        <time>2018-03-22T01:47:30Z</time>
      </trkpt>
      <trkpt lat="46.81118" lon="-1.98914">
        <ele>1</ele>
        <time>2018-03-22T01:48:30Z</time>
      </trkpt>
      <trkpt lat="46.81146" lon="-1.98879">
        <ele>1</ele>
        <time>2018-03-22T01:49:30Z</time>
      </trkpt>
      <trkpt lat="46.81162" lon="-1.98849">
        <ele>1</ele>
        <time>2018-03-22T01:50:30Z</time>
      </trkpt>
      <trkpt lat="46.81183" lon="-1.98825">
        <ele>2</ele>
        <time>2018-03-22T01:51:30Z</time>
      </trkpt>
      <trkpt lat="46.81194" lon="-1.98817">
        <ele>2</ele>
        <time>2018-03-22T01:52:30Z</time>
      </trkpt>
      <trkpt lat="46.81213" lon="-1.98818">
        <ele>1.3</ele>
        <time>2018-03-22T01:53:30Z</time>
      </trkpt>
      <trkpt lat="46.81242" lon="-1.98831">
        <ele>1.7</ele>
        <time>2018-03-22T01:54:30Z</time>
      </trkpt>
      <trkpt lat="46.81529" lon="-1.99117">
        <ele>2</ele>
        <time>2018-03-22T01:55:30Z</time>
      </trkpt>
      <trkpt lat="46.81591" lon="-1.99177">
        <ele>1</ele>
        <time>2018-03-22T01:56:30Z</time>
      </trkpt>
      <trkpt lat="46.81621" lon="-1.99202">
        <ele>2</ele>
        <time>2018-03-22T01:57:30Z</time>
      </trkpt>
      <trkpt lat="46.81657" lon="-1.99222">
        <ele>2</ele>
        <time>2018-03-22T01:58:30Z</time>
      </trkpt>
      <trkpt lat="46.81714" lon="-1.9924">
        <ele>1</ele>
        <time>2018-03-22T01:59:30Z</time>
      </trkpt>
      <trkpt lat="46.81867" lon="-1.99279">
        <ele>2</ele>
        <time>2018-03-22T02:00:30Z</time>
      </trkpt>
      <trkpt lat="46.81899" lon="-1.99283">
        <ele>2</ele>
        <time>2018-03-22T02:01:30Z</time>
      </trkpt>
      <trkpt lat="46.81906" lon="-1.99281">
        <ele>2</ele>
        <time>2018-03-22T02:02:30Z</time>
      </trkpt>
      <trkpt lat="46.81927" lon="-1.99305">
        <ele>2</ele>
        <time>2018-03-22T02:03:30Z</time>
      </trkpt>
      <trkpt lat="46.81957" lon="-1.9932">
        <ele>2</ele>
        <time>2018-03-22T02:04:30Z</time>
      </trkpt>
      <trkpt lat="46.82" lon="-1.99339">
        <ele>2</ele>
        <time>2018-03-22T02:05:30Z</time>
      </trkpt>
      <trkpt lat="46.8212" lon="-1.99381">
        <ele>1</ele>
        <time>2018-03-22T02:06:30Z</time>
      </trkpt>
      <trkpt lat="46.82181" lon="-1.99421">
        <ele>1</ele>
        <time>2018-03-22T02:07:30Z</time>
      </trkpt>
      <trkpt lat="46.8225" lon="-1.99473">
        <ele>2</ele>
        <time>2018-03-22T02:08:30Z</time>
      </trkpt>
      <trkpt lat="46.82315" lon="-1.99518">
        <ele>2</ele>
        <time>2018-03-22T02:09:30Z</time>
      </trkpt>
      <trkpt lat="46.82367" lon="-1.99547">
        <ele>1</ele>
        <time>2018-03-22T02:10:30Z</time>
      </trkpt>
      <trkpt lat="46.82404" lon="-1.99556">
        <ele>1</ele>
        <time>2018-03-22T02:11:30Z</time>
      </trkpt>
      <trkpt lat="46.82426" lon="-1.99562">
        <ele>2</ele>
        <time>2018-03-22T02:12:30Z</time>
      </trkpt>
      <trkpt lat="46.82432" lon="-1.99558">
        <ele>2</ele>
        <time>2018-03-22T02:13:30Z</time>
      </trkpt>
      <trkpt lat="46.82437" lon="-1.99549">
        <ele>1</ele>
        <time>2018-03-22T02:14:30Z</time>
      </trkpt>
      <trkpt lat="46.82451" lon="-1.9952">
        <ele>1</ele>
        <time>2018-03-22T02:15:30Z</time>
      </trkpt>
      <trkpt lat="46.82469" lon="-1.99494">
        <ele>2</ele>
        <time>2018-03-22T02:16:30Z</time>
      </trkpt>
      <trkpt lat="46.82481" lon="-1.99489">
        <ele>2</ele>
        <time>2018-03-22T02:17:30Z</time>
      </trkpt>
      <trkpt lat="46.82487" lon="-1.99484">
        <ele>1</ele>
        <time>2018-03-22T02:18:30Z</time>
      </trkpt>
      <trkpt lat="46.82501" lon="-1.9948">
        <ele>2</ele>
        <time>2018-03-22T02:19:30Z</time>
      </trkpt>
      <trkpt lat="46.82511" lon="-1.99479">
        <ele>2</ele>
        <time>2018-03-22T02:20:30Z</time>
      </trkpt>
      <trkpt lat="46.82523" lon="-1.99482">
        <ele>2</ele>
        <time>2018-03-22T02:21:30Z</time>
      </trkpt>
      <trkpt lat="46.826" lon="-1.99502">
        <ele>2</ele>
        <time>2018-03-22T02:22:30Z</time>
      </trkpt>
      <trkpt lat="46.82618" lon="-1.99503">
        <ele>2</ele>
        <time>2018-03-22T02:23:30Z</time>
      </trkpt>
      <trkpt lat="46.82638" lon="-1.99501">
        <ele>2</ele>
        <time>2018-03-22T02:24:30Z</time>
      </trkpt>
      <trkpt lat="46.82785" lon="-1.99468">
        <ele>2.2</ele>
        <time>2018-03-22T02:25:30Z</time>
      </trkpt>
      <trkpt lat="46.82823" lon="-1.99461">
        <ele>2.2</ele>
        <time>2018-03-22T02:26:30Z</time>
      </trkpt>
      <trkpt lat="46.82889" lon="-1.99468">
        <ele>2</ele>
        <time>2018-03-22T02:27:30Z</time>
      </trkpt>
      <trkpt lat="46.82908" lon="-1.99464">
        <ele>2</ele>
        <time>2018-03-22T02:28:30Z</time>
      </trkpt>
      <trkpt lat="46.82925" lon="-1.99455">
        <ele>1</ele>
        <time>2018-03-22T02:29:30Z</time>
      </trkpt>
      <trkpt lat="46.82965" lon="-1.99414">
        <ele>1</ele>
        <time>2018-03-22T02:30:30Z</time>
      </trkpt>
      <trkpt lat="46.82965" lon="-1.99414">
        <ele>1</ele>
        <time>2018-03-22T02:31:30Z</time>
      </trkpt>
      <trkpt lat="46.83049" lon="-1.99324">
        <ele>1</ele>
        <time>2018-03-22T02:32:30Z</time>
      </trkpt>
      <trkpt lat="46.83079" lon="-1.99295">
        <ele>1</ele>
        <time>2018-03-22T02:33:30Z</time>
      </trkpt>
      <trkpt lat="46.83104" lon="-1.9928">
        <ele>1</ele>
        <time>2018-03-22T02:34:30Z</time>
      </trkpt>
      <trkpt lat="46.83134" lon="-1.9927">
        <ele>1</ele>
        <time>2018-03-22T02:35:30Z</time>
      </trkpt>
      <trkpt lat="46.83195" lon="-1.99257">
        <ele>1</ele>
        <time>2018-03-22T02:36:30Z</time>
      </trkpt>
      <trkpt lat="46.8332" lon="-1.99218">
        <ele>1</ele>
        <time>2018-03-22T02:37:30Z</time>
      </trkpt>
      <trkpt lat="46.83351" lon="-1.99204">
        <ele>1</ele>
        <time>2018-03-22T02:38:30Z</time>
      </trkpt>
      <trkpt lat="46.83469" lon="-1.99128">
        <ele>1</ele>
        <time>2018-03-22T02:39:30Z</time>
      </trkpt>
      <trkpt lat="46.83553" lon="-1.99083">
        <ele>2</ele>
        <time>2018-03-22T02:40:30Z</time>
      </trkpt>
      <trkpt lat="46.83716" lon="-1.99002">
        <ele>2</ele>
        <time>2018-03-22T02:41:30Z</time>
      </trkpt>
      <trkpt lat="46.83955" lon="-1.98897">
        <ele>1.6</ele>
        <time>2018-03-22T02:42:30Z</time>
      </trkpt>
      <trkpt lat="46.84002" lon="-1.98871">
        <ele>1</ele>
        <time>2018-03-22T02:43:30Z</time>
      </trkpt>
      <trkpt lat="46.84072" lon="-1.98842">
        <ele>1</ele>
        <time>2018-03-22T02:44:30Z</time>
      </trkpt>
      <trkpt lat="46.84146" lon="-1.98816">
        <ele>1</ele>
        <time>2018-03-22T02:45:30Z</time>
      </trkpt>
      <trkpt lat="46.84308" lon="-1.9878">
        <ele>1</ele>
        <time>2018-03-22T02:46:30Z</time>
      </trkpt>
      <trkpt lat="46.84335" lon="-1.98771">
        <ele>1</ele>
        <time>2018-03-22T02:47:30Z</time>
      </trkpt>
      <trkpt lat="46.84426" lon="-1.98723">
        <ele>1</ele>
        <time>2018-03-22T02:48:30Z</time>
      </trkpt>
      <trkpt lat="46.84445" lon="-1.98704">
        <ele>1</ele>
        <time>2018-03-22T02:49:30Z</time>
      </trkpt>
      <trkpt lat="46.84458" lon="-1.98685">
        <ele>1</ele>
        <time>2018-03-22T02:50:30Z</time>
      </trkpt>
      <trkpt lat="46.8451" lon="-1.98572">
        <ele>2</ele>
        <time>2018-03-22T02:51:30Z</time>
      </trkpt>
      <trkpt lat="46.84545" lon="-1.98489">
        <ele>1</ele>
        <time>2018-03-22T02:52:30Z</time>
      </trkpt>
      <trkpt lat="46.84549" lon="-1.98474">
        <ele>1</ele>
        <time>2018-03-22T02:53:30Z</time>
      </trkpt>
      <trkpt lat="46.84551" lon="-1.98451">
        <ele>1</ele>
        <time>2018-03-22T02:54:30Z</time>
      </trkpt>
      <trkpt lat="46.84552" lon="-1.98391">
        <ele>1</ele>
        <time>2018-03-22T02:55:30Z</time>
      </trkpt>
      <trkpt lat="46.84556" lon="-1.98365">
        <ele>1</ele>
        <time>2018-03-22T02:56:30Z</time>
      </trkpt>
      <trkpt lat="46.84564" lon="-1.98339">
        <ele>2</ele>
        <time>2018-03-22T02:57:30Z</time>
      </trkpt>
      <trkpt lat="46.84598" lon="-1.98268">
        <ele>1</ele>
        <time>2018-03-22T02:58:30Z</time>
      </trkpt>
      <trkpt lat="46.8461" lon="-1.98251">
        <ele>1</ele>
        <time>2018-03-22T02:59:30Z</time>
      </trkpt>
      <trkpt lat="46.84635" lon="-1.98221">
        <ele>1</ele>
        <time>2018-03-22T03:00:30Z</time>
      </trkpt>
      <trkpt lat="46.84641" lon="-1.98209">
        <ele>1</ele>
        <time>2018-03-22T03:01:30Z</time>
      </trkpt>
      <trkpt lat="46.84656" lon="-1.98169">
        <ele>1.4</ele>
        <time>2018-03-22T03:02:30Z</time>
      </trkpt>
      <trkpt lat="46.84665" lon="-1.98148">
        <ele>1.7</ele>
        <time>2018-03-22T03:03:30Z</time>
      </trkpt>
      <trkpt lat="46.84674" lon="-1.98133">
        <ele>1.8</ele>
        <time>2018-03-22T03:04:30Z</time>
      </trkpt>
      <trkpt lat="46.84682" lon="-1.98123">
        <ele>1.8</ele>
        <time>2018-03-22T03:05:30Z</time>
      </trkpt>
      <trkpt lat="46.84719" lon="-1.98099">
        <ele>2</ele>
        <time>2018-03-22T03:06:30Z</time>
      </trkpt>
      <trkpt lat="46.84745" lon="-1.98073">
        <ele>1.7</ele>
        <time>2018-03-22T03:07:30Z</time>
      </trkpt>
      <trkpt lat="46.84776" lon="-1.9803">
        <ele>1.9</ele>
        <time>2018-03-22T03:08:30Z</time>
      </trkpt>
      <trkpt lat="46.84835" lon="-1.97938">
        <ele>2</ele>
        <time>2018-03-22T03:09:30Z</time>
      </trkpt>
      <trkpt lat="46.84948" lon="-1.97777">
        <ele>2</ele>
        <time>2018-03-22T03:10:30Z</time>
      </trkpt>
      <trkpt lat="46.84978" lon="-1.97748">
        <ele>1</ele>
        <time>2018-03-22T03:11:30Z</time>
      </trkpt>
      <trkpt lat="46.85207" lon="-1.97558">
        <ele>1</ele>
        <time>2018-03-22T03:12:30Z</time>
      </trkpt>
      <trkpt lat="46.85224" lon="-1.9754">
        <ele>1</ele>
        <time>2018-03-22T03:13:30Z</time>
      </trkpt>
      <trkpt lat="46.8527" lon="-1.97471">
        <ele>1</ele>
        <time>2018-03-22T03:14:30Z</time>
      </trkpt>
      <trkpt lat="46.85282" lon="-1.97457">
        <ele>1</ele>
        <time>2018-03-22T03:15:30Z</time>
      </trkpt>
      <trkpt lat="46.85294" lon="-1.9745">
        <ele>1</ele>
        <time>2018-03-22T03:16:30Z</time>
      </trkpt>
      <trkpt lat="46.85377" lon="-1.97421">
        <ele>1</ele>
        <time>2018-03-22T03:17:30Z</time>
      </trkpt>
      <trkpt lat="46.85391" lon="-1.97411">
        <ele>1</ele>
        <time>2018-03-22T03:18:30Z</time>
      </trkpt>
      <trkpt lat="46.85416" lon="-1.97386">
        <ele>1</ele>
        <time>2018-03-22T03:19:30Z</time>
      </trkpt>
      <trkpt lat="46.85431" lon="-1.97361">
        <ele>1</ele>
        <time>2018-03-22T03:20:30Z</time>
      </trkpt>
      <trkpt lat="46.85444" lon="-1.97329">
        <ele>1</ele>
        <time>2018-03-22T03:21:30Z</time>
      </trkpt>
      <trkpt lat="46.85481" lon="-1.97205">
        <ele>3</ele>
        <time>2018-03-22T03:22:30Z</time>
      </trkpt>
      <trkpt lat="46.85538" lon="-1.9704">
        <ele>1</ele>
        <time>2018-03-22T03:23:30Z</time>
      </trkpt>
      <trkpt lat="46.8554" lon="-1.97019">
        <ele>1</ele>
        <time>2018-03-22T03:24:30Z</time>
      </trkpt>
      <trkpt lat="46.85539" lon="-1.96997">
        <ele>1</ele>
        <time>2018-03-22T03:25:30Z</time>
      </trkpt>
      <trkpt lat="46.85525" lon="-1.96876">
        <ele>1</ele>
        <time>2018-03-22T03:26:30Z</time>
      </trkpt>
      <trkpt lat="46.85519" lon="-1.9685">
        <ele>2</ele>
        <time>2018-03-22T03:27:30Z</time>
      </trkpt>
      <trkpt lat="46.85505" lon="-1.9681">
        <ele>2</ele>
        <time>2018-03-22T03:28:30Z</time>
      </trkpt>
      <trkpt lat="46.85499" lon="-1.96787">
        <ele>1</ele>
        <time>2018-03-22T03:29:30Z</time>
      </trkpt>
      <trkpt lat="46.85496" lon="-1.9676">
        <ele>1</ele>
        <time>2018-03-22T03:30:30Z</time>
      </trkpt>
      <trkpt lat="46.85495" lon="-1.96733">
        <ele>1</ele>
        <time>2018-03-22T03:31:30Z</time>
      </trkpt>
      <trkpt lat="46.85498" lon="-1.96712">
        <ele>1</ele>
        <time>2018-03-22T03:32:30Z</time>
      </trkpt>
      <trkpt lat="46.85505" lon="-1.9669">
        <ele>2</ele>
        <time>2018-03-22T03:33:30Z</time>
      </trkpt>
      <trkpt lat="46.85542" lon="-1.9658">
        <ele>1.6</ele>
        <time>2018-03-22T03:34:30Z</time>
      </trkpt>
      <trkpt lat="46.85553" lon="-1.96558">
        <ele>2</ele>
        <time>2018-03-22T03:35:30Z</time>
      </trkpt>
      <trkpt lat="46.85563" lon="-1.96545">
        <ele>2</ele>
        <time>2018-03-22T03:36:30Z</time>
      </trkpt>
      <trkpt lat="46.85577" lon="-1.96533">
        <ele>2</ele>
        <time>2018-03-22T03:37:30Z</time>
      </trkpt>
      <trkpt lat="46.85606" lon="-1.96518">
        <ele>1.5</ele>
        <time>2018-03-22T03:38:30Z</time>
      </trkpt>
      <trkpt lat="46.85615" lon="-1.96508">
        <ele>1.7</ele>
        <time>2018-03-22T03:39:30Z</time>
      </trkpt>
      <trkpt lat="46.85622" lon="-1.96489">
        <ele>1.8</ele>
        <time>2018-03-22T03:40:30Z</time>
      </trkpt>
      <trkpt lat="46.85624" lon="-1.96469">
        <ele>1.5</ele>
        <time>2018-03-22T03:41:30Z</time>
      </trkpt>
      <trkpt lat="46.85624" lon="-1.96429">
        <ele>1.5</ele>
        <time>2018-03-22T03:42:30Z</time>
      </trkpt>
      <trkpt lat="46.85626" lon="-1.96412">
        <ele>1.6</ele>
        <time>2018-03-22T03:43:30Z</time>
      </trkpt>
      <trkpt lat="46.85632" lon="-1.96392">
        <ele>1.9</ele>
        <time>2018-03-22T03:44:30Z</time>
      </trkpt>
      <trkpt lat="46.85645" lon="-1.96365">
        <ele>1.8</ele>
        <time>2018-03-22T03:45:30Z</time>
      </trkpt>
      <trkpt lat="46.85669" lon="-1.96332">
        <ele>2</ele>
        <time>2018-03-22T03:46:30Z</time>
      </trkpt>
      <trkpt lat="46.85678" lon="-1.96322">
        <ele>2</ele>
        <time>2018-03-22T03:47:30Z</time>
      </trkpt>
      <trkpt lat="46.85712" lon="-1.96293">
        <ele>1.7</ele>
        <time>2018-03-22T03:48:30Z</time>
      </trkpt>
      <trkpt lat="46.85721" lon="-1.96281">
        <ele>1.9</ele>
        <time>2018-03-22T03:49:30Z</time>
      </trkpt>
      <trkpt lat="46.85743" lon="-1.96219">
        <ele>1</ele>
        <time>2018-03-22T03:50:30Z</time>
      </trkpt>
      <trkpt lat="46.85759" lon="-1.96182">
        <ele>1</ele>
        <time>2018-03-22T03:51:30Z</time>
      </trkpt>
      <trkpt lat="46.85835" lon="-1.9603">
        <ele>2</ele>
        <time>2018-03-22T03:52:30Z</time>
      </trkpt>
      <trkpt lat="46.85936" lon="-1.95886">
        <ele>4</ele>
        <time>2018-03-22T03:53:30Z</time>
      </trkpt>
      <trkpt lat="46.85942" lon="-1.95874">
        <ele>4</ele>
        <time>2018-03-22T03:54:30Z</time>
      </trkpt>
      <trkpt lat="46.85958" lon="-1.95859">
        <ele>4</ele>
        <time>2018-03-22T03:55:30Z</time>
      </trkpt>
      <trkpt lat="46.85964" lon="-1.95849">
        <ele>4</ele>
        <time>2018-03-22T03:56:30Z</time>
      </trkpt>
      <trkpt lat="46.8597" lon="-1.95832">
        <ele>4</ele>
        <time>2018-03-22T03:57:30Z</time>
      </trkpt>
      <trkpt lat="46.85994" lon="-1.95782">
        <ele>4</ele>
        <time>2018-03-22T03:58:30Z</time>
      </trkpt>
      <trkpt lat="46.8601" lon="-1.95754">
        <ele>4</ele>
        <time>2018-03-22T03:59:30Z</time>
      </trkpt>
      <trkpt lat="46.86043" lon="-1.95712">
        <ele>4</ele>
        <time>2018-03-22T04:00:30Z</time>
      </trkpt>
      <trkpt lat="46.86056" lon="-1.95688">
        <ele>4</ele>
        <time>2018-03-22T04:01:30Z</time>
      </trkpt>
      <trkpt lat="46.8606" lon="-1.95656">
        <ele>4</ele>
        <time>2018-03-22T04:02:30Z</time>
      </trkpt>
      <trkpt lat="46.8606" lon="-1.95638">
        <ele>4</ele>
        <time>2018-03-22T04:03:30Z</time>
      </trkpt>
      <trkpt lat="46.86047" lon="-1.95517">
        <ele>4</ele>
        <time>2018-03-22T04:04:30Z</time>
      </trkpt>
      <trkpt lat="46.86041" lon="-1.95337">
        <ele>4</ele>
        <time>2018-03-22T04:05:30Z</time>
      </trkpt>
      <trkpt lat="46.8604" lon="-1.9523">
        <ele>5</ele>
        <time>2018-03-22T04:06:30Z</time>
      </trkpt>
      <trkpt lat="46.86044" lon="-1.95177">
        <ele>4</ele>
        <time>2018-03-22T04:07:30Z</time>
      </trkpt>
      <trkpt lat="46.86047" lon="-1.95167">
        <ele>4</ele>
        <time>2018-03-22T04:08:30Z</time>
      </trkpt>
      <trkpt lat="46.86045" lon="-1.9516">
        <ele>4</ele>
        <time>2018-03-22T04:09:30Z</time>
      </trkpt>
      <trkpt lat="46.86046" lon="-1.95156">
        <ele>4</ele>
        <time>2018-03-22T04:10:30Z</time>
      </trkpt>
      <trkpt lat="46.8605" lon="-1.9515">
        <ele>4</ele>
        <time>2018-03-22T04:11:30Z</time>
      </trkpt>
      <trkpt lat="46.86053" lon="-1.95149">
        <ele>4</ele>
        <time>2018-03-22T04:12:30Z</time>
      </trkpt>
      <trkpt lat="46.86056" lon="-1.95149">
        <ele>4</ele>
        <time>2018-03-22T04:13:30Z</time>
      </trkpt>
      <trkpt lat="46.8606" lon="-1.95154">
        <ele>4</ele>
        <time>2018-03-22T04:14:30Z</time>
      </trkpt>
      <trkpt lat="46.86079" lon="-1.95162">
        <ele>3</ele>
        <time>2018-03-22T04:15:30Z</time>
      </trkpt>
      <trkpt lat="46.8608" lon="-1.95164">
        <ele>3</ele>
        <time>2018-03-22T04:16:30Z</time>
      </trkpt>
      <trkpt lat="46.86094" lon="-1.95163">
        <ele>3</ele>
        <time>2018-03-22T04:17:30Z</time>
      </trkpt>
      <trkpt lat="46.86151" lon="-1.95171">
        <ele>1</ele>
        <time>2018-03-22T04:18:30Z</time>
      </trkpt>
      <trkpt lat="46.86184" lon="-1.95169">
        <ele>1</ele>
        <time>2018-03-22T04:19:30Z</time>
      </trkpt>
      <trkpt lat="46.86352" lon="-1.95146">
        <ele>3</ele>
        <time>2018-03-22T04:20:30Z</time>
      </trkpt>
      <trkpt lat="46.86386" lon="-1.95136">
        <ele>2</ele>
        <time>2018-03-22T04:21:30Z</time>
      </trkpt>
      <trkpt lat="46.86489" lon="-1.95083">
        <ele>3</ele>
        <time>2018-03-22T04:22:30Z</time>
      </trkpt>
      <trkpt lat="46.86495" lon="-1.95075">
        <ele>3</ele>
        <time>2018-03-22T04:23:30Z</time>
      </trkpt>
      <trkpt lat="46.86515" lon="-1.9506">
        <ele>3</ele>
        <time>2018-03-22T04:24:30Z</time>
      </trkpt>
      <trkpt lat="46.8652" lon="-1.95058">
        <ele>3</ele>
        <time>2018-03-22T04:25:30Z</time>
      </trkpt>
      <trkpt lat="46.86524" lon="-1.9505">
        <ele>3</ele>
        <time>2018-03-22T04:26:30Z</time>
      </trkpt>
      <trkpt lat="46.86527" lon="-1.95047">
        <ele>3</ele>
        <time>2018-03-22T04:27:30Z</time>
      </trkpt>
      <trkpt lat="46.86536" lon="-1.95018">
        <ele>3</ele>
        <time>2018-03-22T04:28:30Z</time>
      </trkpt>
      <trkpt lat="46.8656" lon="-1.94975">
        <ele>3</ele>
        <time>2018-03-22T04:29:30Z</time>
      </trkpt>
      <trkpt lat="46.86564" lon="-1.9497">
        <ele>3</ele>
        <time>2018-03-22T04:30:30Z</time>
      </trkpt>
      <trkpt lat="46.86567" lon="-1.94961">
        <ele>3</ele>
        <time>2018-03-22T04:31:30Z</time>
      </trkpt>
      <trkpt lat="46.86599" lon="-1.94833">
        <ele>4</ele>
        <time>2018-03-22T04:32:30Z</time>
      </trkpt>
      <trkpt lat="46.86615" lon="-1.94743">
        <ele>5</ele>
        <time>2018-03-22T04:33:30Z</time>
      </trkpt>
      <trkpt lat="46.86744" lon="-1.9406">
        <ele>7</ele>
        <time>2018-03-22T04:34:30Z</time>
      </trkpt>
      <trkpt lat="46.86791" lon="-1.93812">
        <ele>9</ele>
        <time>2018-03-22T04:35:30Z</time>
      </trkpt>
      <trkpt lat="46.86804" lon="-1.93753">
        <ele>9</ele>
        <time>2018-03-22T04:36:30Z</time>
      </trkpt>
      <trkpt lat="46.86824" lon="-1.93683">
        <ele>10</ele>
        <time>2018-03-22T04:37:30Z</time>
      </trkpt>
      <trkpt lat="46.86846" lon="-1.93622">
        <ele>10</ele>
        <time>2018-03-22T04:38:30Z</time>
      </trkpt>
      <trkpt lat="46.8689" lon="-1.93514">
        <ele>10</ele>
        <time>2018-03-22T04:39:30Z</time>
      </trkpt>
      <trkpt lat="46.86891" lon="-1.93509">
        <ele>10</ele>
        <time>2018-03-22T04:40:30Z</time>
      </trkpt>
      <trkpt lat="46.86903" lon="-1.93472">
        <ele>10</ele>
        <time>2018-03-22T04:41:30Z</time>
      </trkpt>
      <trkpt lat="46.86908" lon="-1.93468">
        <ele>10</ele>
        <time>2018-03-22T04:42:30Z</time>
      </trkpt>
      <trkpt lat="46.86901" lon="-1.93452">
        <ele>10</ele>
        <time>2018-03-22T04:43:30Z</time>
      </trkpt>
      <trkpt lat="46.86922" lon="-1.93441">
        <ele>10</ele>
        <time>2018-03-22T04:44:30Z</time>
      </trkpt>
      <trkpt lat="46.86928" lon="-1.93426">
        <ele>10</ele>
        <time>2018-03-22T04:45:30Z</time>
      </trkpt>
      <trkpt lat="46.86939" lon="-1.93388">
        <ele>10</ele>
        <time>2018-03-22T04:46:30Z</time>
      </trkpt>
      <trkpt lat="46.86945" lon="-1.93353">
        <ele>10</ele>
        <time>2018-03-22T04:47:30Z</time>
      </trkpt>
      <trkpt lat="46.86954" lon="-1.9323">
        <ele>10</ele>
        <time>2018-03-22T04:48:30Z</time>
      </trkpt>
      <trkpt lat="46.86967" lon="-1.93161">
        <ele>12</ele>
        <time>2018-03-22T04:49:30Z</time>
      </trkpt>
      <trkpt lat="46.87046" lon="-1.92866">
        <ele>13</ele>
        <time>2018-03-22T04:50:30Z</time>
      </trkpt>
      <trkpt lat="46.87059" lon="-1.92806">
        <ele>12</ele>
        <time>2018-03-22T04:51:30Z</time>
      </trkpt>
      <trkpt lat="46.8707" lon="-1.92738">
        <ele>12</ele>
        <time>2018-03-22T04:52:30Z</time>
      </trkpt>
      <trkpt lat="46.87074" lon="-1.92699">
        <ele>11</ele>
        <time>2018-03-22T04:53:30Z</time>
      </trkpt>
      <trkpt lat="46.87075" lon="-1.92661">
        <ele>11</ele>
        <time>2018-03-22T04:54:30Z</time>
      </trkpt>
      <trkpt lat="46.87072" lon="-1.92517">
        <ele>10</ele>
        <time>2018-03-22T04:55:30Z</time>
      </trkpt>
      <trkpt lat="46.87105" lon="-1.92264">
        <ele>8</ele>
        <time>2018-03-22T04:56:30Z</time>
      </trkpt>
      <trkpt lat="46.87119" lon="-1.92178">
        <ele>10</ele>
        <time>2018-03-22T04:57:30Z</time>
      </trkpt>
      <trkpt lat="46.87139" lon="-1.92092">
        <ele>10</ele>
        <time>2018-03-22T04:58:30Z</time>
      </trkpt>
      <trkpt lat="46.87205" lon="-1.9187">
        <ele>13</ele>
        <time>2018-03-22T04:59:30Z</time>
      </trkpt>
      <trkpt lat="46.87219" lon="-1.91814">
        <ele>14</ele>
        <time>2018-03-22T05:00:30Z</time>
      </trkpt>
      <trkpt lat="46.87231" lon="-1.91781">
        <ele>13</ele>
        <time>2018-03-22T05:01:30Z</time>
      </trkpt>
      <trkpt lat="46.87242" lon="-1.91755">
        <ele>13</ele>
        <time>2018-03-22T05:02:30Z</time>
      </trkpt>
      <trkpt lat="46.8731" lon="-1.91622">
        <ele>11</ele>
        <time>2018-03-22T05:03:30Z</time>
      </trkpt>
      <trkpt lat="46.87348" lon="-1.9155">
        <ele>12</ele>
        <time>2018-03-22T05:04:30Z</time>
      </trkpt>
      <trkpt lat="46.87361" lon="-1.91522">
        <ele>13</ele>
        <time>2018-03-22T05:05:30Z</time>
      </trkpt>
      <trkpt lat="46.87368" lon="-1.91498">
        <ele>14</ele>
        <time>2018-03-22T05:06:30Z</time>
      </trkpt>
      <trkpt lat="46.87375" lon="-1.91469">
        <ele>13</ele>
        <time>2018-03-22T05:07:30Z</time>
      </trkpt>
      <trkpt lat="46.87377" lon="-1.91442">
        <ele>13</ele>
        <time>2018-03-22T05:08:30Z</time>
      </trkpt>
      <trkpt lat="46.87371" lon="-1.91334">
        <ele>12</ele>
        <time>2018-03-22T05:09:30Z</time>
      </trkpt>
      <trkpt lat="46.87373" lon="-1.91315">
        <ele>13</ele>
        <time>2018-03-22T05:10:30Z</time>
      </trkpt>
      <trkpt lat="46.87392" lon="-1.91232">
        <ele>15</ele>
        <time>2018-03-22T05:11:30Z</time>
      </trkpt>
      <trkpt lat="46.8751" lon="-1.90907">
        <ele>15</ele>
        <time>2018-03-22T05:12:30Z</time>
      </trkpt>
      <trkpt lat="46.87526" lon="-1.90866">
        <ele>15</ele>
        <time>2018-03-22T05:13:30Z</time>
      </trkpt>
      <trkpt lat="46.87671" lon="-1.90565">
        <ele>15</ele>
        <time>2018-03-22T05:14:30Z</time>
      </trkpt>
      <trkpt lat="46.87718" lon="-1.90455">
        <ele>15</ele>
        <time>2018-03-22T05:15:30Z</time>
      </trkpt>
      <trkpt lat="46.87741" lon="-1.90408">
        <ele>14</ele>
        <time>2018-03-22T05:16:30Z</time>
      </trkpt>
      <trkpt lat="46.87829" lon="-1.90253">
        <ele>15</ele>
        <time>2018-03-22T05:17:30Z</time>
      </trkpt>
      <trkpt lat="46.87902" lon="-1.90107">
        <ele>17</ele>
        <time>2018-03-22T05:18:30Z</time>
      </trkpt>
      <trkpt lat="46.87948" lon="-1.89979">
        <ele>14</ele>
        <time>2018-03-22T05:19:30Z</time>
      </trkpt>
      <trkpt lat="46.88044" lon="-1.89788">
        <ele>15</ele>
        <time>2018-03-22T05:20:30Z</time>
      </trkpt>
      <trkpt lat="46.88074" lon="-1.89722">
        <ele>15</ele>
        <time>2018-03-22T05:21:30Z</time>
      </trkpt>
      <trkpt lat="46.88113" lon="-1.89659">
        <ele>15</ele>
        <time>2018-03-22T05:22:30Z</time>
      </trkpt>
      <trkpt lat="46.88214" lon="-1.89514">
        <ele>16</ele>
        <time>2018-03-22T05:23:30Z</time>
      </trkpt>
      <trkpt lat="46.88531" lon="-1.89086">
        <ele>16</ele>
        <time>2018-03-22T05:24:30Z</time>
      </trkpt>
      <trkpt lat="46.88614" lon="-1.8897">
        <ele>17</ele>
        <time>2018-03-22T05:25:30Z</time>
      </trkpt>
      <trkpt lat="46.88636" lon="-1.88946">
        <ele>18</ele>
        <time>2018-03-22T05:26:30Z</time>
      </trkpt>
      <trkpt lat="46.88643" lon="-1.88928">
        <ele>19</ele>
        <time>2018-03-22T05:27:30Z</time>
      </trkpt>
      <trkpt lat="46.88681" lon="-1.88819">
        <ele>21</ele>
        <time>2018-03-22T05:28:30Z</time>
      </trkpt>
      <trkpt lat="46.88732" lon="-1.8868">
        <ele>17</ele>
        <time>2018-03-22T05:29:30Z</time>
      </trkpt>
      <trkpt lat="46.88945" lon="-1.88723">
        <ele>14</ele>
        <time>2018-03-22T05:30:30Z</time>
      </trkpt>
      <trkpt lat="46.89015" lon="-1.88734">
        <ele>16</ele>
        <time>2018-03-22T05:31:30Z</time>
      </trkpt>
      <trkpt lat="46.8903" lon="-1.88734">
        <ele>16</ele>
        <time>2018-03-22T05:32:30Z</time>
      </trkpt>
      <trkpt lat="46.8903" lon="-1.88734">
        <ele>16</ele>
        <time>2018-03-22T05:33:30Z</time>
      </trkpt>
      <trkpt lat="46.89295" lon="-1.88732">
        <ele>12</ele>
        <time>2018-03-22T05:34:30Z</time>
      </trkpt>
      <trkpt lat="46.89381" lon="-1.88727">
        <ele>10</ele>
        <time>2018-03-22T05:35:30Z</time>
      </trkpt>
      <trkpt lat="46.89994" lon="-1.88716">
        <ele>11</ele>
        <time>2018-03-22T05:36:30Z</time>
      </trkpt>
      <trkpt lat="46.90511" lon="-1.88703">
        <ele>17</ele>
        <time>2018-03-22T05:37:30Z</time>
      </trkpt>
      <trkpt lat="46.91188" lon="-1.88689">
        <ele>19</ele>
        <time>2018-03-22T05:38:30Z</time>
      </trkpt>
      <trkpt lat="46.9131" lon="-1.88684">
        <ele>21</ele>
        <time>2018-03-22T05:39:30Z</time>
      </trkpt>
      <trkpt lat="46.91827" lon="-1.88678">
        <ele>16</ele>
        <time>2018-03-22T05:40:30Z</time>
      </trkpt>
      <trkpt lat="46.9205" lon="-1.88672">
        <ele>11</ele>
        <time>2018-03-22T05:41:30Z</time>
      </trkpt>
      <trkpt lat="46.93071" lon="-1.88654">
        <ele>7</ele>
        <time>2018-03-22T05:42:30Z</time>
      </trkpt>
      <trkpt lat="46.93121" lon="-1.88654">
        <ele>8</ele>
        <time>2018-03-22T05:43:30Z</time>
      </trkpt>
      <trkpt lat="46.93141" lon="-1.88656">
        <ele>8</ele>
        <time>2018-03-22T05:44:30Z</time>
      </trkpt>
      <trkpt lat="46.93317" lon="-1.88692">
        <ele>11</ele>
        <time>2018-03-22T05:45:30Z</time>
      </trkpt>
      <trkpt lat="46.93403" lon="-1.88706">
        <ele>11</ele>
        <time>2018-03-22T05:46:30Z</time>
      </trkpt>
      <trkpt lat="46.9341" lon="-1.88706">
        <ele>11</ele>
        <time>2018-03-22T05:47:30Z</time>
      </trkpt>
      <trkpt lat="46.9341" lon="-1.88704">
        <ele>11</ele>
        <time>2018-03-22T05:48:30Z</time>
      </trkpt>
      <trkpt lat="46.93416" lon="-1.88698">
        <ele>11</ele>
        <time>2018-03-22T05:49:30Z</time>
      </trkpt>
      <trkpt lat="46.93418" lon="-1.88698">
        <ele>11</ele>
        <time>2018-03-22T05:50:30Z</time>
      </trkpt>
      <trkpt lat="46.93422" lon="-1.88707">
        <ele>11</ele>
        <time>2018-03-22T05:51:30Z</time>
      </trkpt>
      <trkpt lat="46.93427" lon="-1.88707">
        <ele>11</ele>
        <time>2018-03-22T05:52:30Z</time>
      </trkpt>
      <trkpt lat="46.93559" lon="-1.88669">
        <ele>10</ele>
        <time>2018-03-22T05:53:30Z</time>
      </trkpt>
      <trkpt lat="46.93609" lon="-1.88671">
        <ele>10</ele>
        <time>2018-03-22T05:54:30Z</time>
      </trkpt>
      <trkpt lat="46.93671" lon="-1.88656">
        <ele>9</ele>
        <time>2018-03-22T05:55:30Z</time>
      </trkpt>
      <trkpt lat="46.93671" lon="-1.88656">
        <ele>9</ele>
        <time>2018-03-22T05:56:30Z</time>
      </trkpt>
      <trkpt lat="46.93685" lon="-1.88653">
        <ele>9</ele>
        <time>2018-03-22T05:57:30Z</time>
      </trkpt>
      <trkpt lat="46.93766" lon="-1.88624">
        <ele>7</ele>
        <time>2018-03-22T05:58:30Z</time>
      </trkpt>
      <trkpt lat="46.93765" lon="-1.886">
        <ele>6</ele>
        <time>2018-03-22T05:59:30Z</time>
      </trkpt>
      <trkpt lat="46.93767" lon="-1.88534">
        <ele>6</ele>
        <time>2018-03-22T06:00:30Z</time>
      </trkpt>
      <trkpt lat="46.93775" lon="-1.88467">
        <ele>6</ele>
        <time>2018-03-22T06:01:30Z</time>
      </trkpt>
      <trkpt lat="46.93769" lon="-1.88396">
        <ele>6</ele>
        <time>2018-03-22T06:02:30Z</time>
      </trkpt>
      <trkpt lat="46.93775" lon="-1.88334">
        <ele>6</ele>
        <time>2018-03-22T06:03:30Z</time>
      </trkpt>
      <trkpt lat="46.93776" lon="-1.88255">
        <ele>8</ele>
        <time>2018-03-22T06:04:30Z</time>
      </trkpt>
      <trkpt lat="46.93728" lon="-1.87932">
        <ele>12</ele>
        <time>2018-03-22T06:05:30Z</time>
      </trkpt>
      <trkpt lat="46.93728" lon="-1.87881">
        <ele>11</ele>
        <time>2018-03-22T06:06:30Z</time>
      </trkpt>
      <trkpt lat="46.9374" lon="-1.87816">
        <ele>11</ele>
        <time>2018-03-22T06:07:30Z</time>
      </trkpt>
      <trkpt lat="46.93776" lon="-1.87697">
        <ele>13</ele>
        <time>2018-03-22T06:08:30Z</time>
      </trkpt>
      <trkpt lat="46.93809" lon="-1.8736">
        <ele>16</ele>
        <time>2018-03-22T06:09:30Z</time>
      </trkpt>
      <trkpt lat="46.93814" lon="-1.87293">
        <ele>17</ele>
        <time>2018-03-22T06:10:30Z</time>
      </trkpt>
      <trkpt lat="46.93796" lon="-1.87054">
        <ele>20</ele>
        <time>2018-03-22T06:11:30Z</time>
      </trkpt>
      <trkpt lat="46.93778" lon="-1.86947">
        <ele>19</ele>
        <time>2018-03-22T06:12:30Z</time>
      </trkpt>
      <trkpt lat="46.93732" lon="-1.8673">
        <ele>21</ele>
        <time>2018-03-22T06:13:30Z</time>
      </trkpt>
      <trkpt lat="46.93716" lon="-1.86641">
        <ele>20</ele>
        <time>2018-03-22T06:14:30Z</time>
      </trkpt>
      <trkpt lat="46.93686" lon="-1.86494">
        <ele>22</ele>
        <time>2018-03-22T06:15:30Z</time>
      </trkpt>
      <trkpt lat="46.93675" lon="-1.86419">
        <ele>22</ele>
        <time>2018-03-22T06:16:30Z</time>
      </trkpt>
      <trkpt lat="46.93634" lon="-1.85723">
        <ele>23</ele>
        <time>2018-03-22T06:17:30Z</time>
      </trkpt>
      <trkpt lat="46.93619" lon="-1.85502">
        <ele>26</ele>
        <time>2018-03-22T06:18:30Z</time>
      </trkpt>
      <trkpt lat="46.93605" lon="-1.85399">
        <ele>26</ele>
        <time>2018-03-22T06:19:30Z</time>
      </trkpt>
      <trkpt lat="46.93603" lon="-1.85367">
        <ele>26</ele>
        <time>2018-03-22T06:20:30Z</time>
      </trkpt>
      <trkpt lat="46.93604" lon="-1.85321">
        <ele>26</ele>
        <time>2018-03-22T06:21:30Z</time>
      </trkpt>
      <trkpt lat="46.9361" lon="-1.8528">
        <ele>27</ele>
        <time>2018-03-22T06:22:30Z</time>
      </trkpt>
      <trkpt lat="46.93666" lon="-1.85014">
        <ele>31</ele>
        <time>2018-03-22T06:23:30Z</time>
      </trkpt>
      <trkpt lat="46.93679" lon="-1.84913">
        <ele>31</ele>
        <time>2018-03-22T06:24:30Z</time>
      </trkpt>
      <trkpt lat="46.93683" lon="-1.84835">
        <ele>32</ele>
        <time>2018-03-22T06:25:30Z</time>
      </trkpt>
      <trkpt lat="46.93675" lon="-1.84687">
        <ele>32</ele>
        <time>2018-03-22T06:26:30Z</time>
      </trkpt>
      <trkpt lat="46.93682" lon="-1.84629">
        <ele>32</ele>
        <time>2018-03-22T06:27:30Z</time>
      </trkpt>
      <trkpt lat="46.93719" lon="-1.84457">
        <ele>34</ele>
        <time>2018-03-22T06:28:30Z</time>
      </trkpt>
      <trkpt lat="46.93721" lon="-1.84439">
        <ele>34</ele>
        <time>2018-03-22T06:29:30Z</time>
      </trkpt>
      <trkpt lat="46.93724" lon="-1.84371">
        <ele>34</ele>
        <time>2018-03-22T06:30:30Z</time>
      </trkpt>
      <trkpt lat="46.93716" lon="-1.84265">
        <ele>34</ele>
        <time>2018-03-22T06:31:30Z</time>
      </trkpt>
      <trkpt lat="46.93688" lon="-1.84122">
        <ele>35</ele>
        <time>2018-03-22T06:32:30Z</time>
      </trkpt>
      <trkpt lat="46.93616" lon="-1.83785">
        <ele>37</ele>
        <time>2018-03-22T06:33:30Z</time>
      </trkpt>
      <trkpt lat="46.93601" lon="-1.83764">
        <ele>37</ele>
        <time>2018-03-22T06:34:30Z</time>
      </trkpt>
      <trkpt lat="46.93595" lon="-1.8376">
        <ele>37</ele>
        <time>2018-03-22T06:35:30Z</time>
      </trkpt>
      <trkpt lat="46.93589" lon="-1.83754">
        <ele>37</ele>
        <time>2018-03-22T06:36:30Z</time>
      </trkpt>
      <trkpt lat="46.93584" lon="-1.83742">
        <ele>37</ele>
        <time>2018-03-22T06:37:30Z</time>
      </trkpt>
      <trkpt lat="46.93582" lon="-1.83728">
        <ele>37</ele>
        <time>2018-03-22T06:38:30Z</time>
      </trkpt>
      <trkpt lat="46.93584" lon="-1.83717">
        <ele>37</ele>
        <time>2018-03-22T06:39:30Z</time>
      </trkpt>
      <trkpt lat="46.93589" lon="-1.83708">
        <ele>37</ele>
        <time>2018-03-22T06:40:30Z</time>
      </trkpt>
      <trkpt lat="46.93599" lon="-1.83699">
        <ele>37</ele>
        <time>2018-03-22T06:41:30Z</time>
      </trkpt>
      <trkpt lat="46.93552" lon="-1.83473">
        <ele>37</ele>
        <time>2018-03-22T06:42:30Z</time>
      </trkpt>
      <trkpt lat="46.9346" lon="-1.83023">
        <ele>39</ele>
        <time>2018-03-22T06:43:30Z</time>
      </trkpt>
      <trkpt lat="46.93456" lon="-1.8299">
        <ele>39</ele>
        <time>2018-03-22T06:44:30Z</time>
      </trkpt>
      <trkpt lat="46.93455" lon="-1.8294">
        <ele>39</ele>
        <time>2018-03-22T06:45:30Z</time>
      </trkpt>
      <trkpt lat="46.93456" lon="-1.82909">
        <ele>40</ele>
        <time>2018-03-22T06:46:30Z</time>
      </trkpt>
      <trkpt lat="46.93462" lon="-1.82863">
        <ele>40</ele>
        <time>2018-03-22T06:47:30Z</time>
      </trkpt>
      <trkpt lat="46.9347" lon="-1.82828">
        <ele>40</ele>
        <time>2018-03-22T06:48:30Z</time>
      </trkpt>
      <trkpt lat="46.9349" lon="-1.82775">
        <ele>39</ele>
        <time>2018-03-22T06:49:30Z</time>
      </trkpt>
      <trkpt lat="46.93566" lon="-1.82623">
        <ele>36</ele>
        <time>2018-03-22T06:50:30Z</time>
      </trkpt>
      <trkpt lat="46.93632" lon="-1.82497">
        <ele>37</ele>
        <time>2018-03-22T06:51:30Z</time>
      </trkpt>
      <trkpt lat="46.93641" lon="-1.82459">
        <ele>37</ele>
        <time>2018-03-22T06:52:30Z</time>
      </trkpt>
      <trkpt lat="46.93647" lon="-1.82425">
        <ele>37</ele>
        <time>2018-03-22T06:53:30Z</time>
      </trkpt>
      <trkpt lat="46.93648" lon="-1.82385">
        <ele>37</ele>
        <time>2018-03-22T06:54:30Z</time>
      </trkpt>
      <trkpt lat="46.93636" lon="-1.81818">
        <ele>36</ele>
        <time>2018-03-22T06:55:30Z</time>
      </trkpt>
      <trkpt lat="46.93648" lon="-1.81705">
        <ele>38</ele>
        <time>2018-03-22T06:56:30Z</time>
      </trkpt>
      <trkpt lat="46.93666" lon="-1.81608">
        <ele>37</ele>
        <time>2018-03-22T06:57:30Z</time>
      </trkpt>
      <trkpt lat="46.93677" lon="-1.81568">
        <ele>37</ele>
        <time>2018-03-22T06:58:30Z</time>
      </trkpt>
      <trkpt lat="46.93818" lon="-1.81218">
        <ele>37</ele>
        <time>2018-03-22T06:59:30Z</time>
      </trkpt>
      <trkpt lat="46.93831" lon="-1.8116">
        <ele>36</ele>
        <time>2018-03-22T07:00:30Z</time>
      </trkpt>
      <trkpt lat="46.93835" lon="-1.81109">
        <ele>36</ele>
        <time>2018-03-22T07:01:30Z</time>
      </trkpt>
      <trkpt lat="46.93804" lon="-1.8047">
        <ele>41</ele>
        <time>2018-03-22T07:02:30Z</time>
      </trkpt>
      <trkpt lat="46.93789" lon="-1.80204">
        <ele>44</ele>
        <time>2018-03-22T07:03:30Z</time>
      </trkpt>
      <trkpt lat="46.93786" lon="-1.80096">
        <ele>46</ele>
        <time>2018-03-22T07:04:30Z</time>
      </trkpt>
      <trkpt lat="46.9379" lon="-1.80041">
        <ele>47</ele>
        <time>2018-03-22T07:05:30Z</time>
      </trkpt>
      <trkpt lat="46.93801" lon="-1.79989">
        <ele>47</ele>
        <time>2018-03-22T07:06:30Z</time>
      </trkpt>
      <trkpt lat="46.93822" lon="-1.79912">
        <ele>46</ele>
        <time>2018-03-22T07:07:30Z</time>
      </trkpt>
      <trkpt lat="46.93899" lon="-1.79681">
        <ele>44</ele>
        <time>2018-03-22T07:08:30Z</time>
      </trkpt>
      <trkpt lat="46.93964" lon="-1.79495">
        <ele>42</ele>
        <time>2018-03-22T07:09:30Z</time>
      </trkpt>
      <trkpt lat="46.94046" lon="-1.79331">
        <ele>43</ele>
        <time>2018-03-22T07:10:30Z</time>
      </trkpt>
      <trkpt lat="46.94144" lon="-1.79142">
        <ele>38</ele>
        <time>2018-03-22T07:11:30Z</time>
      </trkpt>
      <trkpt lat="46.94238" lon="-1.78955">
        <ele>34</ele>
        <time>2018-03-22T07:12:30Z</time>
      </trkpt>
      <trkpt lat="46.94242" lon="-1.78943">
        <ele>34</ele>
        <time>2018-03-22T07:13:30Z</time>
      </trkpt>
      <trkpt lat="46.94242" lon="-1.78933">
        <ele>34</ele>
        <time>2018-03-22T07:14:30Z</time>
      </trkpt>
      <trkpt lat="46.9424" lon="-1.78927">
        <ele>34</ele>
        <time>2018-03-22T07:15:30Z</time>
      </trkpt>
      <trkpt lat="46.94251" lon="-1.78925">
        <ele>34</ele>
        <time>2018-03-22T07:16:30Z</time>
      </trkpt>
      <trkpt lat="46.94273" lon="-1.78916">
        <ele>34</ele>
        <time>2018-03-22T07:17:30Z</time>
      </trkpt>
      <trkpt lat="46.94272" lon="-1.78908">
        <ele>34</ele>
        <time>2018-03-22T07:18:30Z</time>
      </trkpt>
      <trkpt lat="46.94276" lon="-1.78901">
        <ele>34</ele>
        <time>2018-03-22T07:19:30Z</time>
      </trkpt>
      <trkpt lat="46.94242" lon="-1.78774">
        <ele>37</ele>
        <time>2018-03-22T07:20:30Z</time>
      </trkpt>
      <trkpt lat="46.94115" lon="-1.78285">
        <ele>43</ele>
        <time>2018-03-22T07:21:30Z</time>
      </trkpt>
      <trkpt lat="46.93929" lon="-1.7758">
        <ele>42</ele>
        <time>2018-03-22T07:22:30Z</time>
      </trkpt>
      <trkpt lat="46.93886" lon="-1.7743">
        <ele>44</ele>
        <time>2018-03-22T07:23:30Z</time>
      </trkpt>
      <trkpt lat="46.9377" lon="-1.76977">
        <ele>41</ele>
        <time>2018-03-22T07:24:30Z</time>
      </trkpt>
      <trkpt lat="46.93668" lon="-1.76587">
        <ele>40</ele>
        <time>2018-03-22T07:25:30Z</time>
      </trkpt>
      <trkpt lat="46.93555" lon="-1.76155">
        <ele>37</ele>
        <time>2018-03-22T07:26:30Z</time>
      </trkpt>
      <trkpt lat="46.93539" lon="-1.76102">
        <ele>37</ele>
        <time>2018-03-22T07:27:30Z</time>
      </trkpt>
      <trkpt lat="46.93529" lon="-1.76075">
        <ele>37</ele>
        <time>2018-03-22T07:28:30Z</time>
      </trkpt>
      <trkpt lat="46.9351" lon="-1.76035">
        <ele>37</ele>
        <time>2018-03-22T07:29:30Z</time>
      </trkpt>
      <trkpt lat="46.93195" lon="-1.75493">
        <ele>34</ele>
        <time>2018-03-22T07:30:30Z</time>
      </trkpt>
      <trkpt lat="46.93183" lon="-1.75469">
        <ele>34</ele>
        <time>2018-03-22T07:31:30Z</time>
      </trkpt>
      <trkpt lat="46.93164" lon="-1.75425">
        <ele>33</ele>
        <time>2018-03-22T07:32:30Z</time>
      </trkpt>
      <trkpt lat="46.93117" lon="-1.75285">
        <ele>33</ele>
        <time>2018-03-22T07:33:30Z</time>
      </trkpt>
      <trkpt lat="46.93098" lon="-1.75244">
        <ele>32</ele>
        <time>2018-03-22T07:34:30Z</time>
      </trkpt>
      <trkpt lat="46.93068" lon="-1.75192">
        <ele>29</ele>
        <time>2018-03-22T07:35:30Z</time>
      </trkpt>
      <trkpt lat="46.93059" lon="-1.75173">
        <ele>29</ele>
        <time>2018-03-22T07:36:30Z</time>
      </trkpt>
      <trkpt lat="46.93051" lon="-1.75147">
        <ele>27</ele>
        <time>2018-03-22T07:37:30Z</time>
      </trkpt>
      <trkpt lat="46.93049" lon="-1.75129">
        <ele>26</ele>
        <time>2018-03-22T07:38:30Z</time>
      </trkpt>
      <trkpt lat="46.93046" lon="-1.74991">
        <ele>19</ele>
        <time>2018-03-22T07:39:30Z</time>
      </trkpt>
      <trkpt lat="46.93042" lon="-1.74961">
        <ele>18</ele>
        <time>2018-03-22T07:40:30Z</time>
      </trkpt>
      <trkpt lat="46.93036" lon="-1.7494">
        <ele>19</ele>
        <time>2018-03-22T07:41:30Z</time>
      </trkpt>
      <trkpt lat="46.93028" lon="-1.74925">
        <ele>19</ele>
        <time>2018-03-22T07:42:30Z</time>
      </trkpt>
      <trkpt lat="46.92996" lon="-1.74878">
        <ele>22</ele>
        <time>2018-03-22T07:43:30Z</time>
      </trkpt>
      <trkpt lat="46.92984" lon="-1.74842">
        <ele>23</ele>
        <time>2018-03-22T07:44:30Z</time>
      </trkpt>
      <trkpt lat="46.92972" lon="-1.74772">
        <ele>26</ele>
        <time>2018-03-22T07:45:30Z</time>
      </trkpt>
      <trkpt lat="46.92946" lon="-1.74647">
        <ele>28</ele>
        <time>2018-03-22T07:46:30Z</time>
      </trkpt>
      <trkpt lat="46.92939" lon="-1.74605">
        <ele>29</ele>
        <time>2018-03-22T07:47:30Z</time>
      </trkpt>
      <trkpt lat="46.92939" lon="-1.74595">
        <ele>29</ele>
        <time>2018-03-22T07:48:30Z</time>
      </trkpt>
      <trkpt lat="46.9294" lon="-1.74567">
        <ele>30</ele>
        <time>2018-03-22T07:49:30Z</time>
      </trkpt>
      <trkpt lat="46.92939" lon="-1.74557">
        <ele>30</ele>
        <time>2018-03-22T07:50:30Z</time>
      </trkpt>
      <trkpt lat="46.92925" lon="-1.74504">
        <ele>31</ele>
        <time>2018-03-22T07:51:30Z</time>
      </trkpt>
      <trkpt lat="46.92921" lon="-1.7447">
        <ele>31</ele>
        <time>2018-03-22T07:52:30Z</time>
      </trkpt>
      <trkpt lat="46.92918" lon="-1.74391">
        <ele>32</ele>
        <time>2018-03-22T07:53:30Z</time>
      </trkpt>
      <trkpt lat="46.92921" lon="-1.74289">
        <ele>33</ele>
        <time>2018-03-22T07:54:30Z</time>
      </trkpt>
      <trkpt lat="46.92919" lon="-1.74271">
        <ele>33</ele>
        <time>2018-03-22T07:55:30Z</time>
      </trkpt>
      <trkpt lat="46.92913" lon="-1.74242">
        <ele>33</ele>
        <time>2018-03-22T07:56:30Z</time>
      </trkpt>
      <trkpt lat="46.9289" lon="-1.74165">
        <ele>34</ele>
        <time>2018-03-22T07:57:30Z</time>
      </trkpt>
      <trkpt lat="46.92769" lon="-1.74225">
        <ele>29</ele>
        <time>2018-03-22T07:58:30Z</time>
      </trkpt>
      <trkpt lat="46.92655" lon="-1.74283">
        <ele>25</ele>
        <time>2018-03-22T07:59:30Z</time>
      </trkpt>
      <trkpt lat="46.92568" lon="-1.74323">
        <ele>27</ele>
        <time>2018-03-22T08:00:30Z</time>
      </trkpt>
      <trkpt lat="46.92531" lon="-1.74334">
        <ele>28</ele>
        <time>2018-03-22T08:01:30Z</time>
      </trkpt>
      <trkpt lat="46.92475" lon="-1.74327">
        <ele>30</ele>
        <time>2018-03-22T08:02:30Z</time>
      </trkpt>
      <trkpt lat="46.92454" lon="-1.74321">
        <ele>30</ele>
        <time>2018-03-22T08:03:30Z</time>
      </trkpt>
      <trkpt lat="46.92424" lon="-1.7431">
        <ele>31</ele>
        <time>2018-03-22T08:04:30Z</time>
      </trkpt>
      <trkpt lat="46.92315" lon="-1.74244">
        <ele>33</ele>
        <time>2018-03-22T08:05:30Z</time>
      </trkpt>
      <trkpt lat="46.92231" lon="-1.7419">
        <ele>33</ele>
        <time>2018-03-22T08:06:30Z</time>
      </trkpt>
      <trkpt lat="46.9213" lon="-1.74133">
        <ele>31</ele>
        <time>2018-03-22T08:07:30Z</time>
      </trkpt>
      <trkpt lat="46.92042" lon="-1.74109">
        <ele>31</ele>
        <time>2018-03-22T08:08:30Z</time>
      </trkpt>
      <trkpt lat="46.92029" lon="-1.7411">
        <ele>31</ele>
        <time>2018-03-22T08:09:30Z</time>
      </trkpt>
      <trkpt lat="46.9199" lon="-1.74128">
        <ele>30</ele>
        <time>2018-03-22T08:10:30Z</time>
      </trkpt>
      <trkpt lat="46.91908" lon="-1.74171">
        <ele>27</ele>
        <time>2018-03-22T08:11:30Z</time>
      </trkpt>
      <trkpt lat="46.91767" lon="-1.74266">
        <ele>27</ele>
        <time>2018-03-22T08:12:30Z</time>
      </trkpt>
      <trkpt lat="46.91767" lon="-1.74266">
        <ele>27</ele>
        <time>2018-03-22T08:13:30Z</time>
      </trkpt>
      <trkpt lat="46.91741" lon="-1.74283">
        <ele>27</ele>
        <time>2018-03-22T08:14:30Z</time>
      </trkpt>
      <trkpt lat="46.91619" lon="-1.74387">
        <ele>19</ele>
        <time>2018-03-22T08:15:30Z</time>
      </trkpt>
      <trkpt lat="46.91182" lon="-1.74737">
        <ele>34</ele>
        <time>2018-03-22T08:16:30Z</time>
      </trkpt>
      <trkpt lat="46.91159" lon="-1.74751">
        <ele>36</ele>
        <time>2018-03-22T08:17:30Z</time>
      </trkpt>
      <trkpt lat="46.91127" lon="-1.74763">
        <ele>38</ele>
        <time>2018-03-22T08:18:30Z</time>
      </trkpt>
      <trkpt lat="46.91098" lon="-1.7477">
        <ele>40</ele>
        <time>2018-03-22T08:19:30Z</time>
      </trkpt>
      <trkpt lat="46.91058" lon="-1.74773">
        <ele>41</ele>
        <time>2018-03-22T08:20:30Z</time>
      </trkpt>
      <trkpt lat="46.90373" lon="-1.74759">
        <ele>45</ele>
        <time>2018-03-22T08:21:30Z</time>
      </trkpt>
      <trkpt lat="46.89594" lon="-1.74751">
        <ele>51</ele>
        <time>2018-03-22T08:22:30Z</time>
      </trkpt>
      <trkpt lat="46.89499" lon="-1.74748">
        <ele>52</ele>
        <time>2018-03-22T08:23:30Z</time>
      </trkpt>
      <trkpt lat="46.8941" lon="-1.74751">
        <ele>52</ele>
        <time>2018-03-22T08:24:30Z</time>
      </trkpt>
      <trkpt lat="46.89256" lon="-1.74739">
        <ele>49</ele>
        <time>2018-03-22T08:25:30Z</time>
      </trkpt>
      <trkpt lat="46.89" lon="-1.74713">
        <ele>44</ele>
        <time>2018-03-22T08:26:30Z</time>
      </trkpt>
      <trkpt lat="46.88669" lon="-1.74674">
        <ele>39</ele>
        <time>2018-03-22T08:27:30Z</time>
      </trkpt>
      <trkpt lat="46.88649" lon="-1.74675">
        <ele>39</ele>
        <time>2018-03-22T08:28:30Z</time>
      </trkpt>
      <trkpt lat="46.88628" lon="-1.7468">
        <ele>40</ele>
        <time>2018-03-22T08:29:30Z</time>
      </trkpt>
      <trkpt lat="46.88557" lon="-1.7472">
        <ele>41</ele>
        <time>2018-03-22T08:30:30Z</time>
      </trkpt>
      <trkpt lat="46.88149" lon="-1.74971">
        <ele>40</ele>
        <time>2018-03-22T08:31:30Z</time>
      </trkpt>
      <trkpt lat="46.88031" lon="-1.75041">
        <ele>36</ele>
        <time>2018-03-22T08:32:30Z</time>
      </trkpt>
      <trkpt lat="46.88003" lon="-1.75049">
        <ele>35</ele>
        <time>2018-03-22T08:33:30Z</time>
      </trkpt>
      <trkpt lat="46.87885" lon="-1.75067">
        <ele>36</ele>
        <time>2018-03-22T08:34:30Z</time>
      </trkpt>
      <trkpt lat="46.87855" lon="-1.75075">
        <ele>37</ele>
        <time>2018-03-22T08:35:30Z</time>
      </trkpt>
      <trkpt lat="46.87738" lon="-1.75143">
        <ele>35</ele>
        <time>2018-03-22T08:36:30Z</time>
      </trkpt>
      <trkpt lat="46.87674" lon="-1.75176">
        <ele>34</ele>
        <time>2018-03-22T08:37:30Z</time>
      </trkpt>
      <trkpt lat="46.87645" lon="-1.75194">
        <ele>35</ele>
        <time>2018-03-22T08:38:30Z</time>
      </trkpt>
      <trkpt lat="46.87595" lon="-1.75222">
        <ele>36</ele>
        <time>2018-03-22T08:39:30Z</time>
      </trkpt>
      <trkpt lat="46.87451" lon="-1.75252">
        <ele>36</ele>
        <time>2018-03-22T08:40:30Z</time>
      </trkpt>
      <trkpt lat="46.87365" lon="-1.75273">
        <ele>37</ele>
        <time>2018-03-22T08:41:30Z</time>
      </trkpt>
      <trkpt lat="46.87033" lon="-1.75476">
        <ele>42</ele>
        <time>2018-03-22T08:42:30Z</time>
      </trkpt>
      <trkpt lat="46.87021" lon="-1.75479">
        <ele>42</ele>
        <time>2018-03-22T08:43:30Z</time>
      </trkpt>
      <trkpt lat="46.87017" lon="-1.75478">
        <ele>42</ele>
        <time>2018-03-22T08:44:30Z</time>
      </trkpt>
      <trkpt lat="46.8698" lon="-1.75646">
        <ele>43</ele>
        <time>2018-03-22T08:45:30Z</time>
      </trkpt>
      <trkpt lat="46.86955" lon="-1.7564">
        <ele>43</ele>
        <time>2018-03-22T08:46:30Z</time>
      </trkpt>
      <trkpt lat="46.86947" lon="-1.75644">
        <ele>43</ele>
        <time>2018-03-22T08:47:30Z</time>
      </trkpt>
      <trkpt lat="46.86938" lon="-1.7567">
        <ele>44</ele>
        <time>2018-03-22T08:48:30Z</time>
      </trkpt>
      <trkpt lat="46.86923" lon="-1.75697">
        <ele>44</ele>
        <time>2018-03-22T08:49:30Z</time>
      </trkpt>
      <trkpt lat="46.86862" lon="-1.75808">
        <ele>44</ele>
        <time>2018-03-22T08:50:30Z</time>
      </trkpt>
      <trkpt lat="46.86832" lon="-1.75868">
        <ele>44</ele>
        <time>2018-03-22T08:51:30Z</time>
      </trkpt>
      <trkpt lat="46.86777" lon="-1.75901">
        <ele>46</ele>
        <time>2018-03-22T08:52:30Z</time>
      </trkpt>
      <trkpt lat="46.86344" lon="-1.76033">
        <ele>52</ele>
        <time>2018-03-22T08:53:30Z</time>
      </trkpt>
      <trkpt lat="46.85798" lon="-1.76194">
        <ele>54</ele>
        <time>2018-03-22T08:54:30Z</time>
      </trkpt>
      <trkpt lat="46.85777" lon="-1.76204">
        <ele>54</ele>
        <time>2018-03-22T08:55:30Z</time>
      </trkpt>
      <trkpt lat="46.85655" lon="-1.76252">
        <ele>56</ele>
        <time>2018-03-22T08:56:30Z</time>
      </trkpt>
      <trkpt lat="46.85489" lon="-1.76286">
        <ele>57</ele>
        <time>2018-03-22T08:57:30Z</time>
      </trkpt>
      <trkpt lat="46.85322" lon="-1.76289">
        <ele>59</ele>
        <time>2018-03-22T08:58:30Z</time>
      </trkpt>
      <trkpt lat="46.85284" lon="-1.76295">
        <ele>59</ele>
        <time>2018-03-22T08:59:30Z</time>
      </trkpt>
      <trkpt lat="46.85149" lon="-1.7634">
        <ele>59</ele>
        <time>2018-03-22T09:00:30Z</time>
      </trkpt>
      <trkpt lat="46.8487" lon="-1.76346">
        <ele>59</ele>
        <time>2018-03-22T09:01:30Z</time>
      </trkpt>
      <trkpt lat="46.84673" lon="-1.76346">
        <ele>61</ele>
        <time>2018-03-22T09:02:30Z</time>
      </trkpt>
      <trkpt lat="46.8458" lon="-1.76351">
        <ele>61</ele>
        <time>2018-03-22T09:03:30Z</time>
      </trkpt>
      <trkpt lat="46.84456" lon="-1.76368">
        <ele>62</ele>
        <time>2018-03-22T09:04:30Z</time>
      </trkpt>
      <trkpt lat="46.84207" lon="-1.76399">
        <ele>62</ele>
        <time>2018-03-22T09:05:30Z</time>
      </trkpt>
      <trkpt lat="46.83628" lon="-1.76405">
        <ele>62</ele>
        <time>2018-03-22T09:06:30Z</time>
      </trkpt>
      <trkpt lat="46.83593" lon="-1.76402">
        <ele>63</ele>
        <time>2018-03-22T09:07:30Z</time>
      </trkpt>
      <trkpt lat="46.83559" lon="-1.76394">
        <ele>63</ele>
        <time>2018-03-22T09:08:30Z</time>
      </trkpt>
      <trkpt lat="46.83301" lon="-1.76281">
        <ele>61</ele>
        <time>2018-03-22T09:09:30Z</time>
      </trkpt>
      <trkpt lat="46.83248" lon="-1.76255">
        <ele>60</ele>
        <time>2018-03-22T09:10:30Z</time>
      </trkpt>
      <trkpt lat="46.83192" lon="-1.76239">
        <ele>61</ele>
        <time>2018-03-22T09:11:30Z</time>
      </trkpt>
      <trkpt lat="46.83134" lon="-1.76235">
        <ele>61</ele>
        <time>2018-03-22T09:12:30Z</time>
      </trkpt>
      <trkpt lat="46.83077" lon="-1.76242">
        <ele>61</ele>
        <time>2018-03-22T09:13:30Z</time>
      </trkpt>
      <trkpt lat="46.82909" lon="-1.76271">
        <ele>60</ele>
        <time>2018-03-22T09:14:30Z</time>
      </trkpt>
      <trkpt lat="46.82901" lon="-1.76277">
        <ele>60</ele>
        <time>2018-03-22T09:15:30Z</time>
      </trkpt>
      <trkpt lat="46.82901" lon="-1.76285">
        <ele>60</ele>
        <time>2018-03-22T09:16:30Z</time>
      </trkpt>
      <trkpt lat="46.82897" lon="-1.76291">
        <ele>60</ele>
        <time>2018-03-22T09:17:30Z</time>
      </trkpt>
      <trkpt lat="46.8289" lon="-1.76289">
        <ele>59</ele>
        <time>2018-03-22T09:18:30Z</time>
      </trkpt>
      <trkpt lat="46.82888" lon="-1.7628">
        <ele>59</ele>
        <time>2018-03-22T09:19:30Z</time>
      </trkpt>
      <trkpt lat="46.82855" lon="-1.7627">
        <ele>58</ele>
        <time>2018-03-22T09:20:30Z</time>
      </trkpt>
      <trkpt lat="46.82761" lon="-1.7622">
        <ele>56</ele>
        <time>2018-03-22T09:21:30Z</time>
      </trkpt>
      <trkpt lat="46.82719" lon="-1.76202">
        <ele>56</ele>
        <time>2018-03-22T09:22:30Z</time>
      </trkpt>
      <trkpt lat="46.82689" lon="-1.76185">
        <ele>56</ele>
        <time>2018-03-22T09:23:30Z</time>
      </trkpt>
      <trkpt lat="46.82686" lon="-1.76182">
        <ele>56</ele>
        <time>2018-03-22T09:24:30Z</time>
      </trkpt>
      <trkpt lat="46.82664" lon="-1.76172">
        <ele>56</ele>
        <time>2018-03-22T09:25:30Z</time>
      </trkpt>
      <trkpt lat="46.82636" lon="-1.76162">
        <ele>55</ele>
        <time>2018-03-22T09:26:30Z</time>
      </trkpt>
      <trkpt lat="46.82587" lon="-1.7615">
        <ele>54</ele>
        <time>2018-03-22T09:27:30Z</time>
      </trkpt>
      <trkpt lat="46.82548" lon="-1.76142">
        <ele>55</ele>
        <time>2018-03-22T09:28:30Z</time>
      </trkpt>
      <trkpt lat="46.8253" lon="-1.76143">
        <ele>55</ele>
        <time>2018-03-22T09:29:30Z</time>
      </trkpt>
      <trkpt lat="46.82502" lon="-1.76152">
        <ele>57</ele>
        <time>2018-03-22T09:30:30Z</time>
      </trkpt>
      <trkpt lat="46.82458" lon="-1.76176">
        <ele>57</ele>
        <time>2018-03-22T09:31:30Z</time>
      </trkpt>
      <trkpt lat="46.82373" lon="-1.76237">
        <ele>56</ele>
        <time>2018-03-22T09:32:30Z</time>
      </trkpt>
      <trkpt lat="46.82343" lon="-1.76255">
        <ele>56</ele>
        <time>2018-03-22T09:33:30Z</time>
      </trkpt>
      <trkpt lat="46.82295" lon="-1.7631">
        <ele>52</ele>
        <time>2018-03-22T09:34:30Z</time>
      </trkpt>
      <trkpt lat="46.82252" lon="-1.76337">
        <ele>50</ele>
        <time>2018-03-22T09:35:30Z</time>
      </trkpt>
      <trkpt lat="46.82223" lon="-1.76351">
        <ele>49</ele>
        <time>2018-03-22T09:36:30Z</time>
      </trkpt>
      <trkpt lat="46.82128" lon="-1.76389">
        <ele>46</ele>
        <time>2018-03-22T09:37:30Z</time>
      </trkpt>
      <trkpt lat="46.82093" lon="-1.76418">
        <ele>43</ele>
        <time>2018-03-22T09:38:30Z</time>
      </trkpt>
      <trkpt lat="46.82072" lon="-1.7644">
        <ele>42</ele>
        <time>2018-03-22T09:39:30Z</time>
      </trkpt>
      <trkpt lat="46.82054" lon="-1.76465">
        <ele>41</ele>
        <time>2018-03-22T09:40:30Z</time>
      </trkpt>
      <trkpt lat="46.8201" lon="-1.76517">
        <ele>40</ele>
        <time>2018-03-22T09:41:30Z</time>
      </trkpt>
      <trkpt lat="46.81973" lon="-1.76553">
        <ele>38</ele>
        <time>2018-03-22T09:42:30Z</time>
      </trkpt>
      <trkpt lat="46.81975" lon="-1.76566">
        <ele>38</ele>
        <time>2018-03-22T09:43:30Z</time>
      </trkpt>
      <trkpt lat="46.81969" lon="-1.7658">
        <ele>38</ele>
        <time>2018-03-22T09:44:30Z</time>
      </trkpt>
      <trkpt lat="46.81963" lon="-1.76585">
        <ele>38</ele>
        <time>2018-03-22T09:45:30Z</time>
      </trkpt>
      <trkpt lat="46.81957" lon="-1.76586">
        <ele>37</ele>
        <time>2018-03-22T09:46:30Z</time>
      </trkpt>
      <trkpt lat="46.81951" lon="-1.76584">
        <ele>37</ele>
        <time>2018-03-22T09:47:30Z</time>
      </trkpt>
      <trkpt lat="46.81946" lon="-1.76578">
        <ele>37</ele>
        <time>2018-03-22T09:48:30Z</time>
      </trkpt>
      <trkpt lat="46.81943" lon="-1.76572">
        <ele>37</ele>
        <time>2018-03-22T09:49:30Z</time>
      </trkpt>
      <trkpt lat="46.81857" lon="-1.76615">
        <ele>36</ele>
        <time>2018-03-22T09:50:30Z</time>
      </trkpt>
      <trkpt lat="46.81839" lon="-1.76627">
        <ele>36</ele>
        <time>2018-03-22T09:51:30Z</time>
      </trkpt>
      <trkpt lat="46.81804" lon="-1.76655">
        <ele>35</ele>
        <time>2018-03-22T09:52:30Z</time>
      </trkpt>
      <trkpt lat="46.81786" lon="-1.76673">
        <ele>34</ele>
        <time>2018-03-22T09:53:30Z</time>
      </trkpt>
      <trkpt lat="46.81404" lon="-1.77112">
        <ele>25</ele>
        <time>2018-03-22T09:54:30Z</time>
      </trkpt>
      <trkpt lat="46.81404" lon="-1.77112">
        <ele>25</ele>
        <time>2018-03-22T09:55:30Z</time>
      </trkpt>
      <trkpt lat="46.81316" lon="-1.77212">
        <ele>22</ele>
        <time>2018-03-22T09:56:30Z</time>
      </trkpt>
      <trkpt lat="46.81244" lon="-1.77291">
        <ele>22</ele>
        <time>2018-03-22T09:57:30Z</time>
      </trkpt>
      <trkpt lat="46.80781" lon="-1.77607">
        <ele>25</ele>
        <time>2018-03-22T09:58:30Z</time>
      </trkpt>
      <trkpt lat="46.8076" lon="-1.77627">
        <ele>25</ele>
        <time>2018-03-22T09:59:30Z</time>
      </trkpt>
      <trkpt lat="46.80622" lon="-1.7782">
        <ele>21</ele>
        <time>2018-03-22T10:00:30Z</time>
      </trkpt>
      <trkpt lat="46.80477" lon="-1.78016">
        <ele>24</ele>
        <time>2018-03-22T10:01:30Z</time>
      </trkpt>
      <trkpt lat="46.80417" lon="-1.781">
        <ele>25</ele>
        <time>2018-03-22T10:02:30Z</time>
      </trkpt>
      <trkpt lat="46.80365" lon="-1.78216">
        <ele>26</ele>
        <time>2018-03-22T10:03:30Z</time>
      </trkpt>
      <trkpt lat="46.79954" lon="-1.79177">
        <ele>27</ele>
        <time>2018-03-22T10:04:30Z</time>
      </trkpt>
      <trkpt lat="46.79896" lon="-1.79354">
        <ele>27</ele>
        <time>2018-03-22T10:05:30Z</time>
      </trkpt>
      <trkpt lat="46.79836" lon="-1.79527">
        <ele>25</ele>
        <time>2018-03-22T10:06:30Z</time>
      </trkpt>
      <trkpt lat="46.7945" lon="-1.8026">
        <ele>25</ele>
        <time>2018-03-22T10:07:30Z</time>
      </trkpt>
      <trkpt lat="46.79199" lon="-1.80528">
        <ele>28</ele>
        <time>2018-03-22T10:08:30Z</time>
      </trkpt>
      <trkpt lat="46.78855" lon="-1.80888">
        <ele>30</ele>
        <time>2018-03-22T10:09:30Z</time>
      </trkpt>
      <trkpt lat="46.78495" lon="-1.8127">
        <ele>27</ele>
        <time>2018-03-22T10:10:30Z</time>
      </trkpt>
      <trkpt lat="46.77955" lon="-1.81834">
        <ele>32</ele>
        <time>2018-03-22T10:11:30Z</time>
      </trkpt>
      <trkpt lat="46.77485" lon="-1.8232">
        <ele>28</ele>
        <time>2018-03-22T10:12:30Z</time>
      </trkpt>
      <trkpt lat="46.77091" lon="-1.82733">
        <ele>28</ele>
        <time>2018-03-22T10:13:30Z</time>
      </trkpt>
      <trkpt lat="46.76968" lon="-1.82859">
        <ele>26</ele>
        <time>2018-03-22T10:14:30Z</time>
      </trkpt>
      <trkpt lat="46.76938" lon="-1.82894">
        <ele>25</ele>
        <time>2018-03-22T10:15:30Z</time>
      </trkpt>
      <trkpt lat="46.76905" lon="-1.82941">
        <ele>23</ele>
        <time>2018-03-22T10:16:30Z</time>
      </trkpt>
      <trkpt lat="46.76877" lon="-1.82986">
        <ele>20</ele>
        <time>2018-03-22T10:17:30Z</time>
      </trkpt>
      <trkpt lat="46.76833" lon="-1.83073">
        <ele>17</ele>
        <time>2018-03-22T10:18:30Z</time>
      </trkpt>
      <trkpt lat="46.76814" lon="-1.83126">
        <ele>18</ele>
        <time>2018-03-22T10:19:30Z</time>
      </trkpt>
      <trkpt lat="46.76781" lon="-1.83226">
        <ele>19</ele>
        <time>2018-03-22T10:20:30Z</time>
      </trkpt>
      <trkpt lat="46.76751" lon="-1.83294">
        <ele>19</ele>
        <time>2018-03-22T10:21:30Z</time>
      </trkpt>
      <trkpt lat="46.76707" lon="-1.83368">
        <ele>19</ele>
        <time>2018-03-22T10:22:30Z</time>
      </trkpt>
      <trkpt lat="46.76684" lon="-1.83399">
        <ele>19</ele>
        <time>2018-03-22T10:23:30Z</time>
      </trkpt>
      <trkpt lat="46.7669" lon="-1.83416">
        <ele>19</ele>
        <time>2018-03-22T10:24:30Z</time>
      </trkpt>
      <trkpt lat="46.76689" lon="-1.83432">
        <ele>19</ele>
        <time>2018-03-22T10:25:30Z</time>
      </trkpt>
      <trkpt lat="46.76677" lon="-1.83494">
        <ele>20</ele>
        <time>2018-03-22T10:26:30Z</time>
      </trkpt>
      <trkpt lat="46.76665" lon="-1.83533">
        <ele>20</ele>
        <time>2018-03-22T10:27:30Z</time>
      </trkpt>
      <trkpt lat="46.76646" lon="-1.8358">
        <ele>19</ele>
        <time>2018-03-22T10:28:30Z</time>
      </trkpt>
      <trkpt lat="46.76642" lon="-1.83597">
        <ele>20</ele>
        <time>2018-03-22T10:29:30Z</time>
      </trkpt>
      <trkpt lat="46.76646" lon="-1.8361">
        <ele>20</ele>
        <time>2018-03-22T10:30:30Z</time>
      </trkpt>
      <trkpt lat="46.76657" lon="-1.8364">
        <ele>20</ele>
        <time>2018-03-22T10:31:30Z</time>
      </trkpt>
      <trkpt lat="46.76658" lon="-1.83646">
        <ele>20</ele>
        <time>2018-03-22T10:32:30Z</time>
      </trkpt>
      <trkpt lat="46.76657" lon="-1.83653">
        <ele>20</ele>
        <time>2018-03-22T10:33:30Z</time>
      </trkpt>
      <trkpt lat="46.76646" lon="-1.83692">
        <ele>20</ele>
        <time>2018-03-22T10:34:30Z</time>
      </trkpt>
      <trkpt lat="46.76645" lon="-1.83705">
        <ele>20</ele>
        <time>2018-03-22T10:35:30Z</time>
      </trkpt>
      <trkpt lat="46.76648" lon="-1.83808">
        <ele>20</ele>
        <time>2018-03-22T10:36:30Z</time>
      </trkpt>
      <trkpt lat="46.76643" lon="-1.83833">
        <ele>20</ele>
        <time>2018-03-22T10:37:30Z</time>
      </trkpt>
      <trkpt lat="46.76633" lon="-1.8385">
        <ele>20</ele>
        <time>2018-03-22T10:38:30Z</time>
      </trkpt>
      <trkpt lat="46.76627" lon="-1.83854">
        <ele>20</ele>
        <time>2018-03-22T10:39:30Z</time>
      </trkpt>
      <trkpt lat="46.76602" lon="-1.83859">
        <ele>20</ele>
        <time>2018-03-22T10:40:30Z</time>
      </trkpt>
      <trkpt lat="46.76576" lon="-1.83871">
        <ele>20</ele>
        <time>2018-03-22T10:41:30Z</time>
      </trkpt>
      <trkpt lat="46.76569" lon="-1.83877">
        <ele>20</ele>
        <time>2018-03-22T10:42:30Z</time>
      </trkpt>
      <trkpt lat="46.76562" lon="-1.83892">
        <ele>20</ele>
        <time>2018-03-22T10:43:30Z</time>
      </trkpt>
      <trkpt lat="46.76583" lon="-1.83915">
        <ele>21</ele>
        <time>2018-03-22T10:44:30Z</time>
      </trkpt>
      <trkpt lat="46.76592" lon="-1.83933">
        <ele>21</ele>
        <time>2018-03-22T10:45:30Z</time>
      </trkpt>
      <trkpt lat="46.76689" lon="-1.84177">
        <ele>20</ele>
        <time>2018-03-22T10:46:30Z</time>
      </trkpt>
      <trkpt lat="46.76701" lon="-1.84214">
        <ele>20</ele>
        <time>2018-03-22T10:47:30Z</time>
      </trkpt>
      <trkpt lat="46.76707" lon="-1.84239">
        <ele>20</ele>
        <time>2018-03-22T10:48:30Z</time>
      </trkpt>
      <trkpt lat="46.76712" lon="-1.84282">
        <ele>19</ele>
        <time>2018-03-22T10:49:30Z</time>
      </trkpt>
      <trkpt lat="46.76715" lon="-1.84384">
        <ele>19</ele>
        <time>2018-03-22T10:50:30Z</time>
      </trkpt>
      <trkpt lat="46.76719" lon="-1.84443">
        <ele>18</ele>
        <time>2018-03-22T10:51:30Z</time>
      </trkpt>
      <trkpt lat="46.76805" lon="-1.84928">
        <ele>15</ele>
        <time>2018-03-22T10:52:30Z</time>
      </trkpt>
      <trkpt lat="46.76805" lon="-1.84928">
        <ele>15</ele>
        <time>2018-03-22T10:53:30Z</time>
      </trkpt>
      <trkpt lat="46.76814" lon="-1.84995">
        <ele>15</ele>
        <time>2018-03-22T10:54:30Z</time>
      </trkpt>
      <trkpt lat="46.76817" lon="-1.85042">
        <ele>15</ele>
        <time>2018-03-22T10:55:30Z</time>
      </trkpt>
      <trkpt lat="46.76815" lon="-1.85185">
        <ele>13</ele>
        <time>2018-03-22T10:56:30Z</time>
      </trkpt>
      <trkpt lat="46.76816" lon="-1.85214">
        <ele>13</ele>
        <time>2018-03-22T10:57:30Z</time>
      </trkpt>
      <trkpt lat="46.76824" lon="-1.85272">
        <ele>13</ele>
        <time>2018-03-22T10:58:30Z</time>
      </trkpt>
      <trkpt lat="46.76832" lon="-1.85305">
        <ele>13</ele>
        <time>2018-03-22T10:59:30Z</time>
      </trkpt>
      <trkpt lat="46.76843" lon="-1.8534">
        <ele>13</ele>
        <time>2018-03-22T11:00:30Z</time>
      </trkpt>
      <trkpt lat="46.76929" lon="-1.85591">
        <ele>13</ele>
        <time>2018-03-22T11:01:30Z</time>
      </trkpt>
      <trkpt lat="46.77008" lon="-1.85746">
        <ele>13</ele>
        <time>2018-03-22T11:02:30Z</time>
      </trkpt>
      <trkpt lat="46.77251" lon="-1.8621">
        <ele>9</ele>
        <time>2018-03-22T11:03:30Z</time>
      </trkpt>
      <trkpt lat="46.77276" lon="-1.86255">
        <ele>9</ele>
        <time>2018-03-22T11:04:30Z</time>
      </trkpt>
      <trkpt lat="46.77318" lon="-1.86309">
        <ele>8</ele>
        <time>2018-03-22T11:05:30Z</time>
      </trkpt>
      <trkpt lat="46.77489" lon="-1.865">
        <ele>7</ele>
        <time>2018-03-22T11:06:30Z</time>
      </trkpt>
      <trkpt lat="46.77569" lon="-1.86583">
        <ele>7</ele>
        <time>2018-03-22T11:07:30Z</time>
      </trkpt>
      <trkpt lat="46.77602" lon="-1.86637">
        <ele>7</ele>
        <time>2018-03-22T11:08:30Z</time>
      </trkpt>
      <trkpt lat="46.77624" lon="-1.86702">
        <ele>7</ele>
        <time>2018-03-22T11:09:30Z</time>
      </trkpt>
      <trkpt lat="46.77693" lon="-1.87154">
        <ele>5</ele>
        <time>2018-03-22T11:10:30Z</time>
      </trkpt>
      <trkpt lat="46.77698" lon="-1.87211">
        <ele>5</ele>
        <time>2018-03-22T11:11:30Z</time>
      </trkpt>
      <trkpt lat="46.77741" lon="-1.8755">
        <ele>5</ele>
        <time>2018-03-22T11:12:30Z</time>
      </trkpt>
      <trkpt lat="46.77754" lon="-1.87636">
        <ele>4</ele>
        <time>2018-03-22T11:13:30Z</time>
      </trkpt>
      <trkpt lat="46.77763" lon="-1.87684">
        <ele>4</ele>
        <time>2018-03-22T11:14:30Z</time>
      </trkpt>
      <trkpt lat="46.77734" lon="-1.8779">
        <ele>3</ele>
        <time>2018-03-22T11:15:30Z</time>
      </trkpt>
      <trkpt lat="46.77699" lon="-1.87865">
        <ele>3</ele>
        <time>2018-03-22T11:16:30Z</time>
      </trkpt>
      <trkpt lat="46.77493" lon="-1.88076">
        <ele>4</ele>
        <time>2018-03-22T11:17:30Z</time>
      </trkpt>
      <trkpt lat="46.77463" lon="-1.88113">
        <ele>4</ele>
        <time>2018-03-22T11:18:30Z</time>
      </trkpt>
      <trkpt lat="46.77388" lon="-1.88223">
        <ele>3</ele>
        <time>2018-03-22T11:19:30Z</time>
      </trkpt>
      <trkpt lat="46.77334" lon="-1.88296">
        <ele>3</ele>
        <time>2018-03-22T11:20:30Z</time>
      </trkpt>
      <trkpt lat="46.77303" lon="-1.88324">
        <ele>3</ele>
        <time>2018-03-22T11:21:30Z</time>
      </trkpt>
      <trkpt lat="46.77161" lon="-1.8841">
        <ele>4</ele>
        <time>2018-03-22T11:22:30Z</time>
      </trkpt>
      <trkpt lat="46.77072" lon="-1.88456">
        <ele>5</ele>
        <time>2018-03-22T11:23:30Z</time>
      </trkpt>
      <trkpt lat="46.77002" lon="-1.88482">
        <ele>4</ele>
        <time>2018-03-22T11:24:30Z</time>
      </trkpt>
      <trkpt lat="46.76861" lon="-1.88508">
        <ele>4</ele>
        <time>2018-03-22T11:25:30Z</time>
      </trkpt>
      <trkpt lat="46.76766" lon="-1.88503">
        <ele>5</ele>
        <time>2018-03-22T11:26:30Z</time>
      </trkpt>
      <trkpt lat="46.76602" lon="-1.88585">
        <ele>6</ele>
        <time>2018-03-22T11:27:30Z</time>
      </trkpt>
      <trkpt lat="46.76531" lon="-1.88642">
        <ele>4</ele>
        <time>2018-03-22T11:28:30Z</time>
      </trkpt>
      <trkpt lat="46.76532" lon="-1.88646">
        <ele>4</ele>
        <time>2018-03-22T11:29:30Z</time>
      </trkpt>
      <trkpt lat="46.7653" lon="-1.88654">
        <ele>4</ele>
        <time>2018-03-22T11:30:30Z</time>
      </trkpt>
      <trkpt lat="46.76525" lon="-1.88657">
        <ele>4</ele>
        <time>2018-03-22T11:31:30Z</time>
      </trkpt>
      <trkpt lat="46.76521" lon="-1.88656">
        <ele>4</ele>
        <time>2018-03-22T11:32:30Z</time>
      </trkpt>
      <trkpt lat="46.76415" lon="-1.88803">
        <ele>5</ele>
        <time>2018-03-22T11:33:30Z</time>
      </trkpt>
      <trkpt lat="46.76274" lon="-1.89006">
        <ele>4</ele>
        <time>2018-03-22T11:34:30Z</time>
      </trkpt>
      <trkpt lat="46.76215" lon="-1.89071">
        <ele>3</ele>
        <time>2018-03-22T11:35:30Z</time>
      </trkpt>
      <trkpt lat="46.76179" lon="-1.89121">
        <ele>3</ele>
        <time>2018-03-22T11:36:30Z</time>
      </trkpt>
      <trkpt lat="46.76129" lon="-1.89199">
        <ele>4</ele>
        <time>2018-03-22T11:37:30Z</time>
      </trkpt>
      <trkpt lat="46.76099" lon="-1.89251">
        <ele>4</ele>
        <time>2018-03-22T11:38:30Z</time>
      </trkpt>
      <trkpt lat="46.76032" lon="-1.8935">
        <ele>4</ele>
        <time>2018-03-22T11:39:30Z</time>
      </trkpt>
      <trkpt lat="46.75929" lon="-1.89481">
        <ele>3</ele>
        <time>2018-03-22T11:40:30Z</time>
      </trkpt>
      <trkpt lat="46.75829" lon="-1.89638">
        <ele>4</ele>
        <time>2018-03-22T11:41:30Z</time>
      </trkpt>
      <trkpt lat="46.75792" lon="-1.89707">
        <ele>4</ele>
        <time>2018-03-22T11:42:30Z</time>
      </trkpt>
      <trkpt lat="46.75748" lon="-1.89777">
        <ele>4</ele>
        <time>2018-03-22T11:43:30Z</time>
      </trkpt>
      <trkpt lat="46.75654" lon="-1.89913">
        <ele>2</ele>
        <time>2018-03-22T11:44:30Z</time>
      </trkpt>
      <trkpt lat="46.75496" lon="-1.90136">
        <ele>3</ele>
        <time>2018-03-22T11:45:30Z</time>
      </trkpt>
      <trkpt lat="46.75435" lon="-1.90213">
        <ele>3</ele>
        <time>2018-03-22T11:46:30Z</time>
      </trkpt>
      <trkpt lat="46.75435" lon="-1.90213">
        <ele>3</ele>
        <time>2018-03-22T11:47:30Z</time>
      </trkpt>
      <trkpt lat="46.75388" lon="-1.90272">
        <ele>2</ele>
        <time>2018-03-22T11:48:30Z</time>
      </trkpt>
      <trkpt lat="46.75359" lon="-1.90297">
        <ele>2</ele>
        <time>2018-03-22T11:49:30Z</time>
      </trkpt>
      <trkpt lat="46.75278" lon="-1.90335">
        <ele>3</ele>
        <time>2018-03-22T11:50:30Z</time>
      </trkpt>
      <trkpt lat="46.75208" lon="-1.90355">
        <ele>3</ele>
        <time>2018-03-22T11:51:30Z</time>
      </trkpt>
      <trkpt lat="46.75153" lon="-1.90377">
        <ele>2</ele>
        <time>2018-03-22T11:52:30Z</time>
      </trkpt>
      <trkpt lat="46.75096" lon="-1.90395">
        <ele>3</ele>
        <time>2018-03-22T11:53:30Z</time>
      </trkpt>
      <trkpt lat="46.75038" lon="-1.90405">
        <ele>3</ele>
        <time>2018-03-22T11:54:30Z</time>
      </trkpt>
      <trkpt lat="46.74917" lon="-1.90403">
        <ele>4</ele>
        <time>2018-03-22T11:55:30Z</time>
      </trkpt>
      <trkpt lat="46.74843" lon="-1.90406">
        <ele>4</ele>
        <time>2018-03-22T11:56:30Z</time>
      </trkpt>
      <trkpt lat="46.74839" lon="-1.90411">
        <ele>4</ele>
        <time>2018-03-22T11:57:30Z</time>
      </trkpt>
      <trkpt lat="46.74835" lon="-1.90413">
        <ele>4</ele>
        <time>2018-03-22T11:58:30Z</time>
      </trkpt>
      <trkpt lat="46.74826" lon="-1.90412">
        <ele>4</ele>
        <time>2018-03-22T11:59:30Z</time>
      </trkpt>
      <trkpt lat="46.74811" lon="-1.90417">
        <ele>4</ele>
        <time>2018-03-22T12:00:30Z</time>
      </trkpt>
      <trkpt lat="46.74682" lon="-1.90516">
        <ele>3</ele>
        <time>2018-03-22T12:01:30Z</time>
      </trkpt>
      <trkpt lat="46.74616" lon="-1.90577">
        <ele>2</ele>
        <time>2018-03-22T12:02:30Z</time>
      </trkpt>
      <trkpt lat="46.74538" lon="-1.90639">
        <ele>4</ele>
        <time>2018-03-22T12:03:30Z</time>
      </trkpt>
      <trkpt lat="46.7453" lon="-1.90653">
        <ele>4</ele>
        <time>2018-03-22T12:04:30Z</time>
      </trkpt>
      <trkpt lat="46.74528" lon="-1.9066">
        <ele>4</ele>
        <time>2018-03-22T12:05:30Z</time>
      </trkpt>
      <trkpt lat="46.74529" lon="-1.90665">
        <ele>4</ele>
        <time>2018-03-22T12:06:30Z</time>
      </trkpt>
      <trkpt lat="46.74563" lon="-1.90732">
        <ele>4</ele>
        <time>2018-03-22T12:07:30Z</time>
      </trkpt>
      <trkpt lat="46.74571" lon="-1.90827">
        <ele>4</ele>
        <time>2018-03-22T12:08:30Z</time>
      </trkpt>
      <trkpt lat="46.74571" lon="-1.90874">
        <ele>4</ele>
        <time>2018-03-22T12:09:30Z</time>
      </trkpt>
      <trkpt lat="46.74574" lon="-1.90892">
        <ele>3</ele>
        <time>2018-03-22T12:10:30Z</time>
      </trkpt>
      <trkpt lat="46.74579" lon="-1.90914">
        <ele>3</ele>
        <time>2018-03-22T12:11:30Z</time>
      </trkpt>
      <trkpt lat="46.74594" lon="-1.90953">
        <ele>3</ele>
        <time>2018-03-22T12:12:30Z</time>
      </trkpt>
      <trkpt lat="46.746" lon="-1.90979">
        <ele>3</ele>
        <time>2018-03-22T12:13:30Z</time>
      </trkpt>
      <trkpt lat="46.74597" lon="-1.91007">
        <ele>3</ele>
        <time>2018-03-22T12:14:30Z</time>
      </trkpt>
      <trkpt lat="46.74591" lon="-1.9103">
        <ele>3</ele>
        <time>2018-03-22T12:15:30Z</time>
      </trkpt>
      <trkpt lat="46.74592" lon="-1.91036">
        <ele>3</ele>
        <time>2018-03-22T12:16:30Z</time>
      </trkpt>
      <trkpt lat="46.7459" lon="-1.91043">
        <ele>2</ele>
        <time>2018-03-22T12:17:30Z</time>
      </trkpt>
      <trkpt lat="46.74583" lon="-1.91048">
        <ele>2</ele>
        <time>2018-03-22T12:18:30Z</time>
      </trkpt>
      <trkpt lat="46.74566" lon="-1.91075">
        <ele>3</ele>
        <time>2018-03-22T12:19:30Z</time>
      </trkpt>
      <trkpt lat="46.74465" lon="-1.91199">
        <ele>4</ele>
        <time>2018-03-22T12:20:30Z</time>
      </trkpt>
      <trkpt lat="46.74386" lon="-1.91292">
        <ele>3</ele>
        <time>2018-03-22T12:21:30Z</time>
      </trkpt>
      <trkpt lat="46.7436" lon="-1.91329">
        <ele>4</ele>
        <time>2018-03-22T12:22:30Z</time>
      </trkpt>
      <trkpt lat="46.74344" lon="-1.91358">
        <ele>4</ele>
        <time>2018-03-22T12:23:30Z</time>
      </trkpt>
      <trkpt lat="46.74313" lon="-1.91424">
        <ele>4</ele>
        <time>2018-03-22T12:24:30Z</time>
      </trkpt>
      <trkpt lat="46.743" lon="-1.91428">
        <ele>4</ele>
        <time>2018-03-22T12:25:30Z</time>
      </trkpt>
      <trkpt lat="46.74207" lon="-1.91526">
        <ele>5</ele>
        <time>2018-03-22T12:26:30Z</time>
      </trkpt>
      <trkpt lat="46.74126" lon="-1.91601">
        <ele>5</ele>
        <time>2018-03-22T12:27:30Z</time>
      </trkpt>
      <trkpt lat="46.74007" lon="-1.91693">
        <ele>6</ele>
        <time>2018-03-22T12:28:30Z</time>
      </trkpt>
      <trkpt lat="46.73966" lon="-1.91728">
        <ele>5</ele>
        <time>2018-03-22T12:29:30Z</time>
      </trkpt>
      <trkpt lat="46.73869" lon="-1.91827">
        <ele>4</ele>
        <time>2018-03-22T12:30:30Z</time>
      </trkpt>
      <trkpt lat="46.73799" lon="-1.91889">
        <ele>5</ele>
        <time>2018-03-22T12:31:30Z</time>
      </trkpt>
      <trkpt lat="46.73782" lon="-1.91917">
        <ele>5</ele>
        <time>2018-03-22T12:32:30Z</time>
      </trkpt>
      <trkpt lat="46.7378" lon="-1.91772">
        <ele>5</ele>
        <time>2018-03-22T12:33:30Z</time>
      </trkpt>
      <trkpt lat="46.73776" lon="-1.91742">
        <ele>5</ele>
        <time>2018-03-22T12:34:30Z</time>
      </trkpt>
      <trkpt lat="46.73768" lon="-1.91717">
        <ele>5</ele>
        <time>2018-03-22T12:35:30Z</time>
      </trkpt>
      <trkpt lat="46.73753" lon="-1.9168">
        <ele>5</ele>
        <time>2018-03-22T12:36:30Z</time>
      </trkpt>
      <trkpt lat="46.73667" lon="-1.91516">
        <ele>6</ele>
        <time>2018-03-22T12:37:30Z</time>
      </trkpt>
      <trkpt lat="46.73618" lon="-1.91433">
        <ele>6</ele>
        <time>2018-03-22T12:38:30Z</time>
      </trkpt>
      <trkpt lat="46.73568" lon="-1.9135">
        <ele>7</ele>
        <time>2018-03-22T12:39:30Z</time>
      </trkpt>
      <trkpt lat="46.73467" lon="-1.91245">
        <ele>9</ele>
        <time>2018-03-22T12:40:30Z</time>
      </trkpt>
      <trkpt lat="46.73459" lon="-1.91242">
        <ele>10</ele>
        <time>2018-03-22T12:41:30Z</time>
      </trkpt>
      <trkpt lat="46.73452" lon="-1.91244">
        <ele>10</ele>
        <time>2018-03-22T12:42:30Z</time>
      </trkpt>
      <trkpt lat="46.73448" lon="-1.91249">
        <ele>10</ele>
        <time>2018-03-22T12:43:30Z</time>
      </trkpt>
      <trkpt lat="46.73355" lon="-1.91412">
        <ele>13</ele>
        <time>2018-03-22T12:44:30Z</time>
      </trkpt>
      <trkpt lat="46.73347" lon="-1.91437">
        <ele>13</ele>
        <time>2018-03-22T12:45:30Z</time>
      </trkpt>
      <trkpt lat="46.73336" lon="-1.91479">
        <ele>14</ele>
        <time>2018-03-22T12:46:30Z</time>
      </trkpt>
      <trkpt lat="46.73327" lon="-1.91492">
        <ele>14</ele>
        <time>2018-03-22T12:47:30Z</time>
      </trkpt>
      <trkpt lat="46.73322" lon="-1.91471">
        <ele>14</ele>
        <time>2018-03-22T12:48:30Z</time>
      </trkpt>
      <trkpt lat="46.73195" lon="-1.9118">
        <ele>8</ele>
        <time>2018-03-22T12:49:30Z</time>
      </trkpt>
      <trkpt lat="46.73161" lon="-1.91118">
        <ele>5</ele>
        <time>2018-03-22T12:50:30Z</time>
      </trkpt>
      <trkpt lat="46.73119" lon="-1.91063">
        <ele>3</ele>
        <time>2018-03-22T12:51:30Z</time>
      </trkpt>
      <trkpt lat="46.73021" lon="-1.90908">
        <ele>3.3</ele>
        <time>2018-03-22T12:52:30Z</time>
      </trkpt>
      <trkpt lat="46.73021" lon="-1.90908">
        <ele>3.3</ele>
        <time>2018-03-22T12:53:30Z</time>
      </trkpt>
      <trkpt lat="46.72824" lon="-1.90619">
        <ele>3</ele>
        <time>2018-03-22T12:54:30Z</time>
      </trkpt>
      <trkpt lat="46.72775" lon="-1.90554">
        <ele>1</ele>
        <time>2018-03-22T12:55:30Z</time>
      </trkpt>
      <trkpt lat="46.7273" lon="-1.90513">
        <ele>3.7</ele>
        <time>2018-03-22T12:56:30Z</time>
      </trkpt>
      <trkpt lat="46.727" lon="-1.90471">
        <ele>1.3</ele>
        <time>2018-03-22T12:57:30Z</time>
      </trkpt>
      <trkpt lat="46.72463" lon="-1.9024">
        <ele>2</ele>
        <time>2018-03-22T12:58:30Z</time>
      </trkpt>
      <trkpt lat="46.72454" lon="-1.90223">
        <ele>2</ele>
        <time>2018-03-22T12:59:30Z</time>
      </trkpt>
      <trkpt lat="46.72353" lon="-1.90008">
        <ele>5</ele>
        <time>2018-03-22T13:00:30Z</time>
      </trkpt>
      <trkpt lat="46.72323" lon="-1.89963">
        <ele>6</ele>
        <time>2018-03-22T13:01:30Z</time>
      </trkpt>
      <trkpt lat="46.72302" lon="-1.89911">
        <ele>6</ele>
        <time>2018-03-22T13:02:30Z</time>
      </trkpt>
      <trkpt lat="46.72257" lon="-1.89788">
        <ele>7</ele>
        <time>2018-03-22T13:03:30Z</time>
      </trkpt>
      <trkpt lat="46.7225" lon="-1.89771">
        <ele>7</ele>
        <time>2018-03-22T13:04:30Z</time>
      </trkpt>
      <trkpt lat="46.72036" lon="-1.89948">
        <ele>7</ele>
        <time>2018-03-22T13:05:30Z</time>
      </trkpt>
      <trkpt lat="46.72029" lon="-1.89957">
        <ele>7</ele>
        <time>2018-03-22T13:06:30Z</time>
      </trkpt>
      <trkpt lat="46.72007" lon="-1.9">
        <ele>6</ele>
        <time>2018-03-22T13:07:30Z</time>
      </trkpt>
      <trkpt lat="46.71969" lon="-1.90063">
        <ele>6</ele>
        <time>2018-03-22T13:08:30Z</time>
      </trkpt>
      <trkpt lat="46.71959" lon="-1.90132">
        <ele>6</ele>
        <time>2018-03-22T13:09:30Z</time>
      </trkpt>
      <trkpt lat="46.71954" lon="-1.90181">
        <ele>6</ele>
        <time>2018-03-22T13:10:30Z</time>
      </trkpt>
      <trkpt lat="46.71951" lon="-1.90202">
        <ele>6</ele>
        <time>2018-03-22T13:11:30Z</time>
      </trkpt>
      <trkpt lat="46.71942" lon="-1.90224">
        <ele>6</ele>
        <time>2018-03-22T13:12:30Z</time>
      </trkpt>
      <trkpt lat="46.71927" lon="-1.90241">
        <ele>6</ele>
        <time>2018-03-22T13:13:30Z</time>
      </trkpt>
      <trkpt lat="46.71881" lon="-1.90264">
        <ele>7</ele>
        <time>2018-03-22T13:14:30Z</time>
      </trkpt>
      <trkpt lat="46.71868" lon="-1.90309">
        <ele>6</ele>
        <time>2018-03-22T13:15:30Z</time>
      </trkpt>
      <trkpt lat="46.71853" lon="-1.90331">
        <ele>6</ele>
        <time>2018-03-22T13:16:30Z</time>
      </trkpt>
      <trkpt lat="46.71764" lon="-1.9044">
        <ele>7</ele>
        <time>2018-03-22T13:17:30Z</time>
      </trkpt>
      <trkpt lat="46.71568" lon="-1.90674">
        <ele>10</ele>
        <time>2018-03-22T13:18:30Z</time>
      </trkpt>
      <trkpt lat="46.71545" lon="-1.90704">
        <ele>10</ele>
        <time>2018-03-22T13:19:30Z</time>
      </trkpt>
      <trkpt lat="46.7154" lon="-1.90713">
        <ele>10</ele>
        <time>2018-03-22T13:20:30Z</time>
      </trkpt>
      <trkpt lat="46.71494" lon="-1.90764">
        <ele>11</ele>
        <time>2018-03-22T13:21:30Z</time>
      </trkpt>
      <trkpt lat="46.71307" lon="-1.90995">
        <ele>12</ele>
        <time>2018-03-22T13:22:30Z</time>
      </trkpt>
      <trkpt lat="46.71273" lon="-1.91048">
        <ele>12</ele>
        <time>2018-03-22T13:23:30Z</time>
      </trkpt>
      <trkpt lat="46.71273" lon="-1.91048">
        <ele>12</ele>
        <time>2018-03-22T13:24:30Z</time>
      </trkpt>
      <trkpt lat="46.71262" lon="-1.91067">
        <ele>12</ele>
        <time>2018-03-22T13:25:30Z</time>
      </trkpt>
      <trkpt lat="46.71235" lon="-1.9113">
        <ele>12</ele>
        <time>2018-03-22T13:26:30Z</time>
      </trkpt>
      <trkpt lat="46.71093" lon="-1.91466">
        <ele>15</ele>
        <time>2018-03-22T13:27:30Z</time>
      </trkpt>
      <trkpt lat="46.71061" lon="-1.91519">
        <ele>16</ele>
        <time>2018-03-22T13:28:30Z</time>
      </trkpt>
      <trkpt lat="46.70872" lon="-1.91769">
        <ele>19</ele>
        <time>2018-03-22T13:29:30Z</time>
      </trkpt>
      <trkpt lat="46.70861" lon="-1.91777">
        <ele>19</ele>
        <time>2018-03-22T13:30:30Z</time>
      </trkpt>
      <trkpt lat="46.70853" lon="-1.91791">
        <ele>19</ele>
        <time>2018-03-22T13:31:30Z</time>
      </trkpt>
      <trkpt lat="46.70802" lon="-1.9185">
        <ele>20</ele>
        <time>2018-03-22T13:32:30Z</time>
      </trkpt>
      <trkpt lat="46.70699" lon="-1.91956">
        <ele>19</ele>
        <time>2018-03-22T13:33:30Z</time>
      </trkpt>
      <trkpt lat="46.70655" lon="-1.91996">
        <ele>19</ele>
        <time>2018-03-22T13:34:30Z</time>
      </trkpt>
      <trkpt lat="46.70651" lon="-1.92004">
        <ele>19</ele>
        <time>2018-03-22T13:35:30Z</time>
      </trkpt>
      <trkpt lat="46.70653" lon="-1.92018">
        <ele>19</ele>
        <time>2018-03-22T13:36:30Z</time>
      </trkpt>
      <trkpt lat="46.70644" lon="-1.92026">
        <ele>19</ele>
        <time>2018-03-22T13:37:30Z</time>
      </trkpt>
      <trkpt lat="46.70641" lon="-1.92058">
        <ele>19</ele>
        <time>2018-03-22T13:38:30Z</time>
      </trkpt>
      <trkpt lat="46.70635" lon="-1.92223">
        <ele>19</ele>
        <time>2018-03-22T13:39:30Z</time>
      </trkpt>
      <trkpt lat="46.70626" lon="-1.92258">
        <ele>19</ele>
        <time>2018-03-22T13:40:30Z</time>
      </trkpt>
      <trkpt lat="46.70602" lon="-1.92305">
        <ele>18</ele>
        <time>2018-03-22T13:41:30Z</time>
      </trkpt>
      <trkpt lat="46.70582" lon="-1.92334">
        <ele>18</ele>
        <time>2018-03-22T13:42:30Z</time>
      </trkpt>
      <trkpt lat="46.70561" lon="-1.92383">
        <ele>17</ele>
        <time>2018-03-22T13:43:30Z</time>
      </trkpt>
      <trkpt lat="46.70522" lon="-1.92557">
        <ele>12</ele>
        <time>2018-03-22T13:44:30Z</time>
      </trkpt>
      <trkpt lat="46.70521" lon="-1.92585">
        <ele>11</ele>
        <time>2018-03-22T13:45:30Z</time>
      </trkpt>
      <trkpt lat="46.70528" lon="-1.92588">
        <ele>12</ele>
        <time>2018-03-22T13:46:30Z</time>
      </trkpt>
      <trkpt lat="46.70531" lon="-1.92597">
        <ele>12</ele>
        <time>2018-03-22T13:47:30Z</time>
      </trkpt>
      <trkpt lat="46.70528" lon="-1.92605">
        <ele>12</ele>
        <time>2018-03-22T13:48:30Z</time>
      </trkpt>
      <trkpt lat="46.70523" lon="-1.92609">
        <ele>11</ele>
        <time>2018-03-22T13:49:30Z</time>
      </trkpt>
      <trkpt lat="46.70517" lon="-1.92606">
        <ele>11</ele>
        <time>2018-03-22T13:50:30Z</time>
      </trkpt>
      <trkpt lat="46.70505" lon="-1.92616">
        <ele>11</ele>
        <time>2018-03-22T13:51:30Z</time>
      </trkpt>
      <trkpt lat="46.70482" lon="-1.92749">
        <ele>8</ele>
        <time>2018-03-22T13:52:30Z</time>
      </trkpt>
      <trkpt lat="46.70456" lon="-1.93171">
        <ele>4</ele>
        <time>2018-03-22T13:53:30Z</time>
      </trkpt>
      <trkpt lat="46.70456" lon="-1.93171">
        <ele>4</ele>
        <time>2018-03-22T13:54:30Z</time>
      </trkpt>
      <trkpt lat="46.70449" lon="-1.93272">
        <ele>3</ele>
        <time>2018-03-22T13:55:30Z</time>
      </trkpt>
      <trkpt lat="46.70432" lon="-1.93269">
        <ele>3</ele>
        <time>2018-03-22T13:56:30Z</time>
      </trkpt>
      <trkpt lat="46.70389" lon="-1.93248">
        <ele>3</ele>
        <time>2018-03-22T13:57:30Z</time>
      </trkpt>
      <trkpt lat="46.70308" lon="-1.93226">
        <ele>2</ele>
        <time>2018-03-22T13:58:30Z</time>
      </trkpt>
      <trkpt lat="46.70305" lon="-1.93235">
        <ele>2</ele>
        <time>2018-03-22T13:59:30Z</time>
      </trkpt>
      <trkpt lat="46.70298" lon="-1.93246">
        <ele>2</ele>
        <time>2018-03-22T14:00:30Z</time>
      </trkpt>
      <trkpt lat="46.70278" lon="-1.93262">
        <ele>2</ele>
        <time>2018-03-22T14:01:30Z</time>
      </trkpt>
      <trkpt lat="46.70253" lon="-1.93277">
        <ele>2</ele>
        <time>2018-03-22T14:02:30Z</time>
      </trkpt>
      <trkpt lat="46.70238" lon="-1.93293">
        <ele>2</ele>
        <time>2018-03-22T14:03:30Z</time>
      </trkpt>
      <trkpt lat="46.70215" lon="-1.93331">
        <ele>1</ele>
        <time>2018-03-22T14:04:30Z</time>
      </trkpt>
      <trkpt lat="46.70205" lon="-1.93345">
        <ele>1</ele>
        <time>2018-03-22T14:05:30Z</time>
      </trkpt>
      <trkpt lat="46.70203" lon="-1.93339">
        <ele>2</ele>
        <time>2018-03-22T14:06:30Z</time>
      </trkpt>
      <trkpt lat="46.70197" lon="-1.93346">
        <ele>2</ele>
        <time>2018-03-22T14:07:30Z</time>
      </trkpt>
      <trkpt lat="46.70176" lon="-1.93363">
        <ele>2</ele>
        <time>2018-03-22T14:08:30Z</time>
      </trkpt>
      <trkpt lat="46.70166" lon="-1.93367">
        <ele>2</ele>
        <time>2018-03-22T14:09:30Z</time>
      </trkpt>
      <trkpt lat="46.70164" lon="-1.93377">
        <ele>1</ele>
        <time>2018-03-22T14:10:30Z</time>
      </trkpt>
      <trkpt lat="46.7016" lon="-1.93382">
        <ele>1</ele>
        <time>2018-03-22T14:11:30Z</time>
      </trkpt>
      <trkpt lat="46.70145" lon="-1.9339">
        <ele>1</ele>
        <time>2018-03-22T14:12:30Z</time>
      </trkpt>
      <trkpt lat="46.70141" lon="-1.93394">
        <ele>1</ele>
        <time>2018-03-22T14:13:30Z</time>
      </trkpt>
      <trkpt lat="46.70139" lon="-1.93401">
        <ele>1</ele>
        <time>2018-03-22T14:14:30Z</time>
      </trkpt>
      <trkpt lat="46.70135" lon="-1.93407">
        <ele>1</ele>
        <time>2018-03-22T14:15:30Z</time>
      </trkpt>
      <trkpt lat="46.70125" lon="-1.93409">
        <ele>1</ele>
        <time>2018-03-22T14:16:30Z</time>
      </trkpt>
      <trkpt lat="46.70116" lon="-1.93403">
        <ele>2</ele>
        <time>2018-03-22T14:17:30Z</time>
      </trkpt>
      <trkpt lat="46.70092" lon="-1.93408">
        <ele>2</ele>
        <time>2018-03-22T14:18:30Z</time>
      </trkpt>
      <trkpt lat="46.70086" lon="-1.93406">
        <ele>2</ele>
        <time>2018-03-22T14:19:30Z</time>
      </trkpt>
      <trkpt lat="46.7009" lon="-1.93413">
        <ele>2</ele>
        <time>2018-03-22T14:20:30Z</time>
      </trkpt>
      <trkpt lat="46.70066" lon="-1.93416">
        <ele>2</ele>
        <time>2018-03-22T14:21:30Z</time>
      </trkpt>
      <trkpt lat="46.70062" lon="-1.93421">
        <ele>2</ele>
        <time>2018-03-22T14:22:30Z</time>
      </trkpt>
      <trkpt lat="46.70055" lon="-1.93423">
        <ele>2</ele>
        <time>2018-03-22T14:23:30Z</time>
      </trkpt>
      <trkpt lat="46.70048" lon="-1.93421">
        <ele>2</ele>
        <time>2018-03-22T14:24:30Z</time>
      </trkpt>
      <trkpt lat="46.70045" lon="-1.93416">
        <ele>2</ele>
        <time>2018-03-22T14:25:30Z</time>
      </trkpt>
      <trkpt lat="46.70034" lon="-1.93411">
        <ele>3</ele>
        <time>2018-03-22T14:26:30Z</time>
      </trkpt>
      <trkpt lat="46.70018" lon="-1.93395">
        <ele>3</ele>
        <time>2018-03-22T14:27:30Z</time>
      </trkpt>
      <trkpt lat="46.69984" lon="-1.9338">
        <ele>3</ele>
        <time>2018-03-22T14:28:30Z</time>
      </trkpt>
      <trkpt lat="46.69974" lon="-1.93384">
        <ele>3</ele>
        <time>2018-03-22T14:29:30Z</time>
      </trkpt>
      <trkpt lat="46.69956" lon="-1.93401">
        <ele>3</ele>
        <time>2018-03-22T14:30:30Z</time>
      </trkpt>
      <trkpt lat="46.69938" lon="-1.93403">
        <ele>3</ele>
        <time>2018-03-22T14:31:30Z</time>
      </trkpt>
      <trkpt lat="46.69938" lon="-1.93403">
        <ele>3</ele>
        <time>2018-03-22T14:32:30Z</time>
      </trkpt>
      <trkpt lat="46.69919" lon="-1.93404">
        <ele>3</ele>
        <time>2018-03-22T14:33:30Z</time>
      </trkpt>
      <trkpt lat="46.69895" lon="-1.93414">
        <ele>4</ele>
        <time>2018-03-22T14:34:30Z</time>
      </trkpt>
      <trkpt lat="46.69877" lon="-1.9343">
        <ele>4</ele>
        <time>2018-03-22T14:35:30Z</time>
      </trkpt>
      <trkpt lat="46.69864" lon="-1.93433">
        <ele>4</ele>
        <time>2018-03-22T14:36:30Z</time>
      </trkpt>
    </trkseg>
  </trk>
</gpx>